Home > Products > Valid Products > TAF

000
FTUS41 KCTP 021501 AAA
TAFAOO
TAF AMD
KAOO 021501Z 0215/0312 29014G23KT P6SM OVC035
     FM021800 30015G25KT P6SM SCT035
     FM030000 31010KT P6SM BKN250=



000
FTUS41 KCTP 021501 AAB
TAFBFD
TAF AMD
KBFD 021501Z 0215/0312 29012G21KT 3/4SM -SN BKN015 OVC021
     FM021800 30012G20KT P6SM VCSH BKN025
     FM022100 30012KT P6SM BKN035
     FM030200 30006KT P6SM SCT035 BKN250=



000
FTUS41 KCTP 021501 AAA
TAFUNV
TAF AMD
KUNV 021501Z 0215/0312 29012KT 6SM HZ BKN040
     FM021800 30014G24KT P6SM SCT035
     FM030000 31010KT P6SM BKN250=



000
FTUS41 KCTP 021501 AAB
TAFMDT
TAF AMD
KMDT 021501Z 0215/0312 31024G30KT P6SM FEW040 SCT100
     FM021600 31015G25KT P6SM SCT050
     FM030000 31010KT P6SM SCT250=



000
FTUS41 KCTP 021501 AAB
TAFBFD
TAF AMD
KBFD 021501Z 0215/0312 29012G21KT 3/4SM -SN BKN015 OVC021
     FM021800 30012G20KT P6SM VCSH BKN025
     FM022100 30012KT P6SM BKN035
     FM030200 30006KT P6SM SCT035 BKN250=



000
FTUS41 KCTP 021501 AAA
TAFUNV
TAF AMD
KUNV 021501Z 0215/0312 29012KT 6SM HZ BKN040
     FM021800 30014G24KT P6SM SCT035
     FM030000 31010KT P6SM BKN250=



000
FTUS41 KCTP 021501 AAA
TAFIPT
TAF AMD
KIPT 021501Z 0215/0312 29017G23KT P6SM BKN050
     FM021800 29014G24KT P6SM SCT040
     FM030000 29010KT P6SM BKN250=



000
FTUS41 KCTP 021501 AAA
TAFIPT
TAF AMD
KIPT 021501Z 0215/0312 29017G23KT P6SM BKN050
     FM021800 29014G24KT P6SM SCT040
     FM030000 29010KT P6SM BKN250=



000
FTUS41 KCTP 021501 AAA
TAFJST
TAF AMD
KJST 021501Z 0215/0312 27009G19KT P6SM OVC022
     FM021800 30015G25KT P6SM BKN018
     FM022100 30012KT P6SM BKN025
     FM030200 30006KT P6SM SCT030 BKN250=



000
FTUS41 KCTP 021501 AAB
TAFMDT
TAF AMD
KMDT 021501Z 0215/0312 31024G30KT P6SM FEW040 SCT100
     FM021600 31015G25KT P6SM SCT050
     FM030000 31010KT P6SM SCT250=



000
FTUS41 KCTP 021501 AAA
TAFAOO
TAF AMD
KAOO 021501Z 0215/0312 29014G23KT P6SM OVC035
     FM021800 30015G25KT P6SM SCT035
     FM030000 31010KT P6SM BKN250=



000
FTUS41 KCTP 021501 AAA
TAFJST
TAF AMD
KJST 021501Z 0215/0312 27009G19KT P6SM OVC022
     FM021800 30015G25KT P6SM BKN018
     FM022100 30012KT P6SM BKN025
     FM030200 30006KT P6SM SCT030 BKN250=



000
FTUS41 KCTP 021501 AAA
TAFAOO
TAF AMD
KAOO 021501Z 0215/0312 29014G23KT P6SM OVC035
     FM021800 30015G25KT P6SM SCT035
     FM030000 31010KT P6SM BKN250=



000
FTUS41 KCTP 021501 AAA
TAFAOO
TAF AMD
KAOO 021501Z 0215/0312 29014G23KT P6SM OVC035
     FM021800 30015G25KT P6SM SCT035
     FM030000 31010KT P6SM BKN250=



000
FTUS41 KCTP 021501 AAB
TAFMDT
TAF AMD
KMDT 021501Z 0215/0312 31024G30KT P6SM FEW040 SCT100
     FM021600 31015G25KT P6SM SCT050
     FM030000 31010KT P6SM SCT250=



000
FTUS41 KCTP 021501 AAA
TAFIPT
TAF AMD
KIPT 021501Z 0215/0312 29017G23KT P6SM BKN050
     FM021800 29014G24KT P6SM SCT040
     FM030000 29010KT P6SM BKN250=



000
FTUS41 KCTP 021501 AAA
TAFJST
TAF AMD
KJST 021501Z 0215/0312 27009G19KT P6SM OVC022
     FM021800 30015G25KT P6SM BKN018
     FM022100 30012KT P6SM BKN025
     FM030200 30006KT P6SM SCT030 BKN250=



000
FTUS41 KCTP 021501 AAA
TAFIPT
TAF AMD
KIPT 021501Z 0215/0312 29017G23KT P6SM BKN050
     FM021800 29014G24KT P6SM SCT040
     FM030000 29010KT P6SM BKN250=



000
FTUS41 KCTP 021501 AAA
TAFJST
TAF AMD
KJST 021501Z 0215/0312 27009G19KT P6SM OVC022
     FM021800 30015G25KT P6SM BKN018
     FM022100 30012KT P6SM BKN025
     FM030200 30006KT P6SM SCT030 BKN250=



000
FTUS41 KCTP 021501 AAA
TAFUNV
TAF AMD
KUNV 021501Z 0215/0312 29012KT 6SM HZ BKN040
     FM021800 30014G24KT P6SM SCT035
     FM030000 31010KT P6SM BKN250=



000
FTUS41 KCTP 021501 AAB
TAFBFD
TAF AMD
KBFD 021501Z 0215/0312 29012G21KT 3/4SM -SN BKN015 OVC021
     FM021800 30012G20KT P6SM VCSH BKN025
     FM022100 30012KT P6SM BKN035
     FM030200 30006KT P6SM SCT035 BKN250=



000
FTUS41 KCTP 021501 AAB
TAFMDT
TAF AMD
KMDT 021501Z 0215/0312 31024G30KT P6SM FEW040 SCT100
     FM021600 31015G25KT P6SM SCT050
     FM030000 31010KT P6SM SCT250=



000
FTUS41 KCTP 021501 AAA
TAFUNV
TAF AMD
KUNV 021501Z 0215/0312 29012KT 6SM HZ BKN040
     FM021800 30014G24KT P6SM SCT035
     FM030000 31010KT P6SM BKN250=



000
FTUS41 KCTP 021501 AAB
TAFBFD
TAF AMD
KBFD 021501Z 0215/0312 29012G21KT 3/4SM -SN BKN015 OVC021
     FM021800 30012G20KT P6SM VCSH BKN025
     FM022100 30012KT P6SM BKN035
     FM030200 30006KT P6SM SCT035 BKN250=



000
FTUS41 KCTP 021236 AAA
TAFBFD
TAF AMD
KBFD 021236Z 0213/0312 29010G17KT 1 1/2SM -SN BR BKN015 OVC025
     FM021500 29011G18KT 5SM -SHSN BR BKN018 OVC025
     FM021800 30012G20KT P6SM BKN025
     FM022100 30012KT P6SM BKN035
     FM030200 30006KT P6SM SCT035 BKN250=



000
FTUS41 KCTP 021236 AAA
TAFBFD
TAF AMD
KBFD 021236Z 0213/0312 29010G17KT 1 1/2SM -SN BR BKN015 OVC025
     FM021500 29011G18KT 5SM -SHSN BR BKN018 OVC025
     FM021800 30012G20KT P6SM BKN025
     FM022100 30012KT P6SM BKN035
     FM030200 30006KT P6SM SCT035 BKN250=



000
FTUS41 KCTP 021236 AAA
TAFBFD
TAF AMD
KBFD 021236Z 0213/0312 29010G17KT 1 1/2SM -SN BR BKN015 OVC025
     FM021500 29011G18KT 5SM -SHSN BR BKN018 OVC025
     FM021800 30012G20KT P6SM BKN025
     FM022100 30012KT P6SM BKN035
     FM030200 30006KT P6SM SCT035 BKN250=



000
FTUS41 KCTP 021215 AAA
TAFMDT
TAF AMD
KMDT 021215Z 0212/0312 VRB03KT 1SM BR OVC035
     FM021400 31010KT 4SM BR BKN040
     FM021600 31015G25KT P6SM SCT050
     FM030000 31010KT P6SM SCT250=



000
FTUS41 KCTP 021215 AAA
TAFMDT
TAF AMD
KMDT 021215Z 0212/0312 VRB03KT 1SM BR OVC035
     FM021400 31010KT 4SM BR BKN040
     FM021600 31015G25KT P6SM SCT050
     FM030000 31010KT P6SM SCT250=



000
FTUS41 KCTP 021215 AAA
TAFMDT
TAF AMD
KMDT 021215Z 0212/0312 VRB03KT 1SM BR OVC035
     FM021400 31010KT 4SM BR BKN040
     FM021600 31015G25KT P6SM SCT050
     FM030000 31010KT P6SM SCT250=



000
FTUS41 KCTP 021137
TAFBFD
TAF
KBFD 021137Z 0212/0312 29010G17KT 2SM -SN BR BKN015 OVC025
     FM021500 29011G18KT 5SM -SHSN BR BKN018 OVC025
     FM021800 30012G20KT P6SM BKN025
     FM022100 30012KT P6SM BKN035
     FM030200 30006KT P6SM SCT035 BKN250=



000
FTUS41 KCTP 021137
TAFAOO
TAF
KAOO 021137Z 0212/0312 31013G20KT 5SM -SN OVC018
     FM021330 30013G22KT P6SM BKN025
     FM021800 30015G25KT P6SM SCT035
     FM030000 31010KT P6SM BKN250=



000
FTUS41 KCTP 021137
TAFIPT
TAF
KIPT 021137Z 0212/0312 29006KT 5SM -SHSN BR OVC030
     FM021400 29013G21KT P6SM BKN035
     FM021800 29014G24KT P6SM SCT040
     FM030000 29010KT P6SM BKN250=



000
FTUS41 KCTP 021137
TAFUNV
TAF
KUNV 021137Z 0212/0312 29015G23KT 4SM -SN OVC022
     FM021400 29013G22KT P6SM BKN025
     FM021800 30014G24KT P6SM SCT035
     FM030000 31010KT P6SM BKN250=



000
FTUS41 KCTP 021137
TAFBFD
TAF
KBFD 021137Z 0212/0312 29010G17KT 2SM -SN BR BKN015 OVC025
     FM021500 29011G18KT 5SM -SHSN BR BKN018 OVC025
     FM021800 30012G20KT P6SM BKN025
     FM022100 30012KT P6SM BKN035
     FM030200 30006KT P6SM SCT035 BKN250=



000
FTUS41 KCTP 021137
TAFJST
TAF
KJST 021137Z 0212/0312 28012G20KT 2SM -SHSN BR OVC005
     FM021500 29013G22KT 5SM -SHSN BR BKN009 OVC018
     FM021800 30015G25KT P6SM BKN018
     FM022100 30012KT P6SM BKN025
     FM030200 30006KT P6SM SCT030 BKN250=



000
FTUS41 KCTP 021137
TAFUNV
TAF
KUNV 021137Z 0212/0312 29015G23KT 4SM -SN OVC022
     FM021400 29013G22KT P6SM BKN025
     FM021800 30014G24KT P6SM SCT035
     FM030000 31010KT P6SM BKN250=



000
FTUS41 KCTP 021137
TAFAOO
TAF
KAOO 021137Z 0212/0312 31013G20KT 5SM -SN OVC018
     FM021330 30013G22KT P6SM BKN025
     FM021800 30015G25KT P6SM SCT035
     FM030000 31010KT P6SM BKN250=



000
FTUS41 KCTP 021137
TAFJST
TAF
KJST 021137Z 0212/0312 28012G20KT 2SM -SHSN BR OVC005
     FM021500 29013G22KT 5SM -SHSN BR BKN009 OVC018
     FM021800 30015G25KT P6SM BKN018
     FM022100 30012KT P6SM BKN025
     FM030200 30006KT P6SM SCT030 BKN250=



000
FTUS41 KCTP 021137
TAFBFD
TAF
KBFD 021137Z 0212/0312 29010G17KT 2SM -SN BR BKN015 OVC025
     FM021500 29011G18KT 5SM -SHSN BR BKN018 OVC025
     FM021800 30012G20KT P6SM BKN025
     FM022100 30012KT P6SM BKN035
     FM030200 30006KT P6SM SCT035 BKN250=



000
FTUS41 KCTP 021137
TAFMDT
TAF
KMDT 021137Z 0212/0312 VRB03KT 2SM BR OVC035
     FM021400 31010KT 4SM BR BKN040
     FM021600 31015G25KT P6SM SCT050
     FM030000 31010KT P6SM SCT250=



000
FTUS41 KCTP 021137
TAFBFD
TAF
KBFD 021137Z 0212/0312 29010G17KT 2SM -SN BR BKN015 OVC025
     FM021500 29011G18KT 5SM -SHSN BR BKN018 OVC025
     FM021800 30012G20KT P6SM BKN025
     FM022100 30012KT P6SM BKN035
     FM030200 30006KT P6SM SCT035 BKN250=



000
FTUS41 KCTP 021137
TAFIPT
TAF
KIPT 021137Z 0212/0312 29006KT 5SM -SHSN BR OVC030
     FM021400 29013G21KT P6SM BKN035
     FM021800 29014G24KT P6SM SCT040
     FM030000 29010KT P6SM BKN250=



000
FTUS41 KCTP 021137
TAFJST
TAF
KJST 021137Z 0212/0312 28012G20KT 2SM -SHSN BR OVC005
     FM021500 29013G22KT 5SM -SHSN BR BKN009 OVC018
     FM021800 30015G25KT P6SM BKN018
     FM022100 30012KT P6SM BKN025
     FM030200 30006KT P6SM SCT030 BKN250=



000
FTUS41 KCTP 021137
TAFUNV
TAF
KUNV 021137Z 0212/0312 29015G23KT 4SM -SN OVC022
     FM021400 29013G22KT P6SM BKN025
     FM021800 30014G24KT P6SM SCT035
     FM030000 31010KT P6SM BKN250=



000
FTUS41 KCTP 021137
TAFMDT
TAF
KMDT 021137Z 0212/0312 VRB03KT 2SM BR OVC035
     FM021400 31010KT 4SM BR BKN040
     FM021600 31015G25KT P6SM SCT050
     FM030000 31010KT P6SM SCT250=



000
FTUS41 KCTP 021137
TAFIPT
TAF
KIPT 021137Z 0212/0312 29006KT 5SM -SHSN BR OVC030
     FM021400 29013G21KT P6SM BKN035
     FM021800 29014G24KT P6SM SCT040
     FM030000 29010KT P6SM BKN250=



000
FTUS41 KCTP 021137
TAFUNV
TAF
KUNV 021137Z 0212/0312 29015G23KT 4SM -SN OVC022
     FM021400 29013G22KT P6SM BKN025
     FM021800 30014G24KT P6SM SCT035
     FM030000 31010KT P6SM BKN250=



000
FTUS41 KCTP 021137
TAFAOO
TAF
KAOO 021137Z 0212/0312 31013G20KT 5SM -SN OVC018
     FM021330 30013G22KT P6SM BKN025
     FM021800 30015G25KT P6SM SCT035
     FM030000 31010KT P6SM BKN250=



000
FTUS41 KCTP 021137
TAFMDT
TAF
KMDT 021137Z 0212/0312 VRB03KT 2SM BR OVC035
     FM021400 31010KT 4SM BR BKN040
     FM021600 31015G25KT P6SM SCT050
     FM030000 31010KT P6SM SCT250=



000
FTUS41 KCTP 021137
TAFAOO
TAF
KAOO 021137Z 0212/0312 31013G20KT 5SM -SN OVC018
     FM021330 30013G22KT P6SM BKN025
     FM021800 30015G25KT P6SM SCT035
     FM030000 31010KT P6SM BKN250=



000
FTUS41 KCTP 021137
TAFMDT
TAF
KMDT 021137Z 0212/0312 VRB03KT 2SM BR OVC035
     FM021400 31010KT 4SM BR BKN040
     FM021600 31015G25KT P6SM SCT050
     FM030000 31010KT P6SM SCT250=



000
FTUS41 KCTP 021137
TAFJST
TAF
KJST 021137Z 0212/0312 28012G20KT 2SM -SHSN BR OVC005
     FM021500 29013G22KT 5SM -SHSN BR BKN009 OVC018
     FM021800 30015G25KT P6SM BKN018
     FM022100 30012KT P6SM BKN025
     FM030200 30006KT P6SM SCT030 BKN250=



000
FTUS41 KCTP 021027 AAB
TAFBFD
TAF AMD
KBFD 021027Z 0210/0306 29010KT 1 1/2SM -SN BR OVC010
     FM021300 29010KT 5SM -SHSN BR OVC018
     FM021800 30013G21KT P6SM BKN025
     FM022100 30012KT P6SM BKN050
     FM030200 31006KT P6SM BKN100=



000
FTUS41 KCTP 021027 AAB
TAFBFD
TAF AMD
KBFD 021027Z 0210/0306 29010KT 1 1/2SM -SN BR OVC010
     FM021300 29010KT 5SM -SHSN BR OVC018
     FM021800 30013G21KT P6SM BKN025
     FM022100 30012KT P6SM BKN050
     FM030200 31006KT P6SM BKN100=



000
FTUS41 KCTP 020907 AAB
TAFMDT
TAF AMD
KMDT 020907Z 0209/0306 VRB03KT 2SM BR OVC025
     FM021100 32008KT P6SM OVC035
     FM021300 32011KT P6SM OVC045
     FM021600 32014G24KT P6SM SCT050
     FM030000 32010KT P6SM SCT100=



000
FTUS41 KCTP 020907 AAB
TAFMDT
TAF AMD
KMDT 020907Z 0209/0306 VRB03KT 2SM BR OVC025
     FM021100 32008KT P6SM OVC035
     FM021300 32011KT P6SM OVC045
     FM021600 32014G24KT P6SM SCT050
     FM030000 32010KT P6SM SCT100=



000
FTUS41 KCTP 020907 AAA
TAFAOO
TAF AMD
KAOO 020907Z 0209/0306 29010KT P6SM OVC020
     FM021200 29014G24KT P6SM BKN035
     FM021800 30014G21KT P6SM BKN060
     FM030000 31010KT P6SM SCT100=



000
FTUS41 KCTP 020907 AAA
TAFAOO
TAF AMD
KAOO 020907Z 0209/0306 29010KT P6SM OVC020
     FM021200 29014G24KT P6SM BKN035
     FM021800 30014G21KT P6SM BKN060
     FM030000 31010KT P6SM SCT100=



000
FTUS41 KCTP 020853 AAB
TAFIPT
TAF AMD
KIPT 020853Z 0209/0306 08003KT 6SM BR VCSH OVC013 WS020/28025KT
     FM021000 29008KT P6SM OVC025
     FM021200 28014G24KT P6SM BKN045
     FM021500 28014G24KT P6SM SCT060
     FM030000 28005KT P6SM SCT100=



000
FTUS41 KCTP 020853 AAB
TAFIPT
TAF AMD
KIPT 020853Z 0209/0306 08003KT 6SM BR VCSH OVC013 WS020/28025KT
     FM021000 29008KT P6SM OVC025
     FM021200 28014G24KT P6SM BKN045
     FM021500 28014G24KT P6SM SCT060
     FM030000 28005KT P6SM SCT100=



000
FTUS41 KCTP 020852 AAA
TAFJST
TAF AMD
KJST 020852Z 0209/0306 26011KT 1/2SM -SN FG OVC002
     FM021300 28015G25KT 4SM -SHSN OVC006
     FM021800 29016G26KT 6SM -SHSN OVC020
     FM030100 29011KT P6SM OVC030=



000
FTUS41 KCTP 020852 AAA
TAFJST
TAF AMD
KJST 020852Z 0209/0306 26011KT 1/2SM -SN FG OVC002
     FM021300 28015G25KT 4SM -SHSN OVC006
     FM021800 29016G26KT 6SM -SHSN OVC020
     FM030100 29011KT P6SM OVC030=



000
FTUS41 KCTP 020852 AAB
TAFUNV
TAF AMD
KUNV 020852Z 0209/0306 29010KT P6SM OVC016
     FM021000 29010KT P6SM OVC020
     FM021200 29014G24KT P6SM BKN035
     FM021800 30014G24KT P6SM SCT060
     FM030000 30008KT P6SM SCT100=



000
FTUS41 KCTP 020852 AAA
TAFJST
TAF AMD
KJST 020852Z 0209/0306 26011KT 1/2SM -SN FG OVC002
     FM021300 28015G25KT 4SM -SHSN OVC006
     FM021800 29016G26KT 6SM -SHSN OVC020
     FM030100 29011KT P6SM OVC030=



000
FTUS41 KCTP 020852 AAA
TAFJST
TAF AMD
KJST 020852Z 0209/0306 26011KT 1/2SM -SN FG OVC002
     FM021300 28015G25KT 4SM -SHSN OVC006
     FM021800 29016G26KT 6SM -SHSN OVC020
     FM030100 29011KT P6SM OVC030=



000
FTUS41 KCTP 020852 AAB
TAFUNV
TAF AMD
KUNV 020852Z 0209/0306 29010KT P6SM OVC016
     FM021000 29010KT P6SM OVC020
     FM021200 29014G24KT P6SM BKN035
     FM021800 30014G24KT P6SM SCT060
     FM030000 30008KT P6SM SCT100=



000
FTUS41 KCTP 020846 AAA
TAFBFD
TAF AMD
KBFD 020846Z 0209/0306 29010KT 4SM BR VCSH OVC006
     FM021000 29010KT P6SM VCSH OVC010
     FM021300 29010KT P6SM VCSH OVC020
     FM021800 30013G21KT P6SM BKN025
     FM022100 30012KT P6SM BKN050
     FM030200 31006KT P6SM BKN100=



000
FTUS41 KCTP 020846 AAA
TAFBFD
TAF AMD
KBFD 020846Z 0209/0306 29010KT 4SM BR VCSH OVC006
     FM021000 29010KT P6SM VCSH OVC010
     FM021300 29010KT P6SM VCSH OVC020
     FM021800 30013G21KT P6SM BKN025
     FM022100 30012KT P6SM BKN050
     FM030200 31006KT P6SM BKN100=



000
FTUS41 KCTP 020846 AAA
TAFBFD
TAF AMD
KBFD 020846Z 0209/0306 29010KT 4SM BR VCSH OVC006
     FM021000 29010KT P6SM VCSH OVC010
     FM021300 29010KT P6SM VCSH OVC020
     FM021800 30013G21KT P6SM BKN025
     FM022100 30012KT P6SM BKN050
     FM030200 31006KT P6SM BKN100=



000
FTUS41 KCTP 020732 AAA
TAFMDT
TAF AMD
KMDT 020732Z 0208/0306 VRB03KT 2SM BR SCT005 OVC030
     FM021100 32008KT P6SM OVC035
     FM021300 32011KT P6SM OVC045
     FM021600 32014G24KT P6SM SCT050
     FM030000 32010KT P6SM SCT100=



000
FTUS41 KCTP 020732 AAA
TAFMDT
TAF AMD
KMDT 020732Z 0208/0306 VRB03KT 2SM BR SCT005 OVC030
     FM021100 32008KT P6SM OVC035
     FM021300 32011KT P6SM OVC045
     FM021600 32014G24KT P6SM SCT050
     FM030000 32010KT P6SM SCT100=



000
FTUS41 KCTP 020731 AAA
TAFIPT
TAF AMD
KIPT 020731Z 0208/0306 08003KT 6SM BR VCSH OVC013 WS020/28025KT
     FM020830 29008KT P6SM OVC025
     FM021200 28014G24KT P6SM BKN045
     FM021500 28014G24KT P6SM SCT060
     FM030000 28005KT P6SM SCT100=



000
FTUS41 KCTP 020731 AAA
TAFIPT
TAF AMD
KIPT 020731Z 0208/0306 08003KT 6SM BR VCSH OVC013 WS020/28025KT
     FM020830 29008KT P6SM OVC025
     FM021200 28014G24KT P6SM BKN045
     FM021500 28014G24KT P6SM SCT060
     FM030000 28005KT P6SM SCT100=



000
FTUS41 KCTP 020730 AAA
TAFUNV
TAF AMD
KUNV 020730Z 0208/0306 29010KT P6SM OVC016
     FM020830 29010KT P6SM OVC020
     FM021200 29014G24KT P6SM BKN035
     FM021800 30014G24KT P6SM SCT060
     FM030000 30008KT P6SM SCT100=



000
FTUS41 KCTP 020730 AAA
TAFUNV
TAF AMD
KUNV 020730Z 0208/0306 29010KT P6SM OVC016
     FM020830 29010KT P6SM OVC020
     FM021200 29014G24KT P6SM BKN035
     FM021800 30014G24KT P6SM SCT060
     FM030000 30008KT P6SM SCT100=



000
FTUS41 KCTP 020532
TAFJST
TAF
KJST 020532Z 0206/0306 26011G17KT 3SM -SN BR OVC003
     FM020900 29010G17KT 4SM -SHSN BR OVC006
     FM021300 28015G25KT 4SM -SHSN OVC009
     FM021800 29016G26KT 6SM -SHSN OVC020
     FM030100 29011KT P6SM OVC030=



000
FTUS41 KCTP 020532
TAFIPT
TAF
KIPT 020532Z 0206/0306 08003KT 6SM BR VCSH OVC018 WS020/28025KT
     FM020800 29008KT P6SM OVC025
     FM021200 28014G24KT P6SM BKN045
     FM021500 28014G24KT P6SM SCT060
     FM030000 28005KT P6SM SCT100=



000
FTUS41 KCTP 020532
TAFMDT
TAF
KMDT 020532Z 0206/0306 VRB03KT 2SM BR OVC005
     FM020800 34006KT 5SM BR OVC015
     FM021100 32008KT P6SM OVC030
     FM021300 32011KT P6SM OVC045
     FM021600 32014G24KT P6SM SCT050
     FM030000 32010KT P6SM SCT100=



000
FTUS41 KCTP 020532
TAFBFD
TAF
KBFD 020532Z 0206/0306 27006KT 6SM BR VCSH OVC007
     FM020800 27008KT P6SM VCSH OVC010
     FM021300 29010KT P6SM VCSH OVC020
     FM021800 30013G21KT P6SM BKN025
     FM022100 30012KT P6SM BKN050
     FM030200 31006KT P6SM BKN100=



000
FTUS41 KCTP 020532
TAFUNV
TAF
KUNV 020532Z 0206/0306 VRB03KT 2SM -SN SCT008 OVC015
     FM020700 29010KT P6SM VCSH OVC020
     FM021200 29014G24KT P6SM BKN035
     FM021800 30014G24KT P6SM SCT060
     FM030000 30008KT P6SM SCT100=



000
FTUS41 KCTP 020532
TAFAOO
TAF
KAOO 020532Z 0206/0306 VRB03KT 2SM -FZDZ BR OVC019
     FM020700 29010KT P6SM VCSH OVC020
     FM021200 29014G24KT P6SM BKN035
     FM021800 30014G21KT P6SM BKN060
     FM030000 31010KT P6SM SCT100=



000
FTUS41 KCTP 020532
TAFAOO
TAF
KAOO 020532Z 0206/0306 VRB03KT 2SM -FZDZ BR OVC019
     FM020700 29010KT P6SM VCSH OVC020
     FM021200 29014G24KT P6SM BKN035
     FM021800 30014G21KT P6SM BKN060
     FM030000 31010KT P6SM SCT100=



000
FTUS41 KCTP 020532
TAFUNV
TAF
KUNV 020532Z 0206/0306 VRB03KT 2SM -SN SCT008 OVC015
     FM020700 29010KT P6SM VCSH OVC020
     FM021200 29014G24KT P6SM BKN035
     FM021800 30014G24KT P6SM SCT060
     FM030000 30008KT P6SM SCT100=



000
FTUS41 KCTP 020532
TAFJST
TAF
KJST 020532Z 0206/0306 26011G17KT 3SM -SN BR OVC003
     FM020900 29010G17KT 4SM -SHSN BR OVC006
     FM021300 28015G25KT 4SM -SHSN OVC009
     FM021800 29016G26KT 6SM -SHSN OVC020
     FM030100 29011KT P6SM OVC030=



000
FTUS41 KCTP 020532
TAFIPT
TAF
KIPT 020532Z 0206/0306 08003KT 6SM BR VCSH OVC018 WS020/28025KT
     FM020800 29008KT P6SM OVC025
     FM021200 28014G24KT P6SM BKN045
     FM021500 28014G24KT P6SM SCT060
     FM030000 28005KT P6SM SCT100=



000
FTUS41 KCTP 020532
TAFJST
TAF
KJST 020532Z 0206/0306 26011G17KT 3SM -SN BR OVC003
     FM020900 29010G17KT 4SM -SHSN BR OVC006
     FM021300 28015G25KT 4SM -SHSN OVC009
     FM021800 29016G26KT 6SM -SHSN OVC020
     FM030100 29011KT P6SM OVC030=



000
FTUS41 KCTP 020532
TAFMDT
TAF
KMDT 020532Z 0206/0306 VRB03KT 2SM BR OVC005
     FM020800 34006KT 5SM BR OVC015
     FM021100 32008KT P6SM OVC030
     FM021300 32011KT P6SM OVC045
     FM021600 32014G24KT P6SM SCT050
     FM030000 32010KT P6SM SCT100=



000
FTUS41 KCTP 020532
TAFBFD
TAF
KBFD 020532Z 0206/0306 27006KT 6SM BR VCSH OVC007
     FM020800 27008KT P6SM VCSH OVC010
     FM021300 29010KT P6SM VCSH OVC020
     FM021800 30013G21KT P6SM BKN025
     FM022100 30012KT P6SM BKN050
     FM030200 31006KT P6SM BKN100=



000
FTUS41 KCTP 020532
TAFIPT
TAF
KIPT 020532Z 0206/0306 08003KT 6SM BR VCSH OVC018 WS020/28025KT
     FM020800 29008KT P6SM OVC025
     FM021200 28014G24KT P6SM BKN045
     FM021500 28014G24KT P6SM SCT060
     FM030000 28005KT P6SM SCT100=



000
FTUS41 KCTP 020532
TAFBFD
TAF
KBFD 020532Z 0206/0306 27006KT 6SM BR VCSH OVC007
     FM020800 27008KT P6SM VCSH OVC010
     FM021300 29010KT P6SM VCSH OVC020
     FM021800 30013G21KT P6SM BKN025
     FM022100 30012KT P6SM BKN050
     FM030200 31006KT P6SM BKN100=



000
FTUS41 KCTP 020532
TAFMDT
TAF
KMDT 020532Z 0206/0306 VRB03KT 2SM BR OVC005
     FM020800 34006KT 5SM BR OVC015
     FM021100 32008KT P6SM OVC030
     FM021300 32011KT P6SM OVC045
     FM021600 32014G24KT P6SM SCT050
     FM030000 32010KT P6SM SCT100=



000
FTUS41 KCTP 020532
TAFAOO
TAF
KAOO 020532Z 0206/0306 VRB03KT 2SM -FZDZ BR OVC019
     FM020700 29010KT P6SM VCSH OVC020
     FM021200 29014G24KT P6SM BKN035
     FM021800 30014G21KT P6SM BKN060
     FM030000 31010KT P6SM SCT100=



000
FTUS41 KCTP 020532
TAFUNV
TAF
KUNV 020532Z 0206/0306 VRB03KT 2SM -SN SCT008 OVC015
     FM020700 29010KT P6SM VCSH OVC020
     FM021200 29014G24KT P6SM BKN035
     FM021800 30014G24KT P6SM SCT060
     FM030000 30008KT P6SM SCT100=



000
FTUS41 KCTP 020532
TAFMDT
TAF
KMDT 020532Z 0206/0306 VRB03KT 2SM BR OVC005
     FM020800 34006KT 5SM BR OVC015
     FM021100 32008KT P6SM OVC030
     FM021300 32011KT P6SM OVC045
     FM021600 32014G24KT P6SM SCT050
     FM030000 32010KT P6SM SCT100=



000
FTUS41 KCTP 020532
TAFIPT
TAF
KIPT 020532Z 0206/0306 08003KT 6SM BR VCSH OVC018 WS020/28025KT
     FM020800 29008KT P6SM OVC025
     FM021200 28014G24KT P6SM BKN045
     FM021500 28014G24KT P6SM SCT060
     FM030000 28005KT P6SM SCT100=



000
FTUS41 KCTP 020532
TAFJST
TAF
KJST 020532Z 0206/0306 26011G17KT 3SM -SN BR OVC003
     FM020900 29010G17KT 4SM -SHSN BR OVC006
     FM021300 28015G25KT 4SM -SHSN OVC009
     FM021800 29016G26KT 6SM -SHSN OVC020
     FM030100 29011KT P6SM OVC030=



000
FTUS41 KCTP 020532
TAFBFD
TAF
KBFD 020532Z 0206/0306 27006KT 6SM BR VCSH OVC007
     FM020800 27008KT P6SM VCSH OVC010
     FM021300 29010KT P6SM VCSH OVC020
     FM021800 30013G21KT P6SM BKN025
     FM022100 30012KT P6SM BKN050
     FM030200 31006KT P6SM BKN100=



000
FTUS41 KCTP 020532
TAFUNV
TAF
KUNV 020532Z 0206/0306 VRB03KT 2SM -SN SCT008 OVC015
     FM020700 29010KT P6SM VCSH OVC020
     FM021200 29014G24KT P6SM BKN035
     FM021800 30014G24KT P6SM SCT060
     FM030000 30008KT P6SM SCT100=



000
FTUS41 KCTP 020532
TAFAOO
TAF
KAOO 020532Z 0206/0306 VRB03KT 2SM -FZDZ BR OVC019
     FM020700 29010KT P6SM VCSH OVC020
     FM021200 29014G24KT P6SM BKN035
     FM021800 30014G21KT P6SM BKN060
     FM030000 31010KT P6SM SCT100=



000
FTUS41 KCTP 020421 AAB
TAFMDT
TAF AMD
KMDT 020421Z 0204/0224 VRB03KT 2SM -FZDZ BR OVC005
     FM020600 34006KT 5SM BR OVC015
     FM020800 32008KT P6SM VCSH OVC030
     FM021200 31011KT P6SM OVC045
     FM021600 31014G21KT P6SM SCT050=



000
FTUS41 KCTP 020421 AAB
TAFMDT
TAF AMD
KMDT 020421Z 0204/0224 VRB03KT 2SM -FZDZ BR OVC005
     FM020600 34006KT 5SM BR OVC015
     FM020800 32008KT P6SM VCSH OVC030
     FM021200 31011KT P6SM OVC045
     FM021600 31014G21KT P6SM SCT050=



000
FTUS41 KCTP 020421 AAB
TAFMDT
TAF AMD
KMDT 020421Z 0204/0224 VRB03KT 2SM -FZDZ BR OVC005
     FM020600 34006KT 5SM BR OVC015
     FM020800 32008KT P6SM VCSH OVC030
     FM021200 31011KT P6SM OVC045
     FM021600 31014G21KT P6SM SCT050=



000
FTUS41 KCTP 020421 AAB
TAFMDT
TAF AMD
KMDT 020421Z 0204/0224 VRB03KT 2SM -FZDZ BR OVC005
     FM020600 34006KT 5SM BR OVC015
     FM020800 32008KT P6SM VCSH OVC030
     FM021200 31011KT P6SM OVC045
     FM021600 31014G21KT P6SM SCT050=



000
FTUS41 KCTP 020419 AAB
TAFIPT
TAF AMD
KIPT 020419Z 0204/0224 VRB03KT 6SM -SN BR OVC020 WS020/24025KT
     FM020700 29008KT P6SM OVC025
     FM021200 28011KT P6SM BKN035
     FM021500 28014KT P6SM BKN050=



000
FTUS41 KCTP 020419 AAB
TAFIPT
TAF AMD
KIPT 020419Z 0204/0224 VRB03KT 6SM -SN BR OVC020 WS020/24025KT
     FM020700 29008KT P6SM OVC025
     FM021200 28011KT P6SM BKN035
     FM021500 28014KT P6SM BKN050=



000
FTUS41 KCTP 020419 AAB
TAFIPT
TAF AMD
KIPT 020419Z 0204/0224 VRB03KT 6SM -SN BR OVC020 WS020/24025KT
     FM020700 29008KT P6SM OVC025
     FM021200 28011KT P6SM BKN035
     FM021500 28014KT P6SM BKN050=



000
FTUS41 KCTP 020419 AAB
TAFIPT
TAF AMD
KIPT 020419Z 0204/0224 VRB03KT 6SM -SN BR OVC020 WS020/24025KT
     FM020700 29008KT P6SM OVC025
     FM021200 28011KT P6SM BKN035
     FM021500 28014KT P6SM BKN050=



000
FTUS41 KCTP 020418 AAB
TAFUNV
TAF AMD
KUNV 020418Z 0204/0224 VRB03KT 2SM -SN BR OVC008
     FM020600 24008KT 4SM -SHSN BR OVC020
     FM020700 29010KT P6SM VCSH OVC020
     FM021200 29014G24KT P6SM BKN035
     FM021800 30014G24KT P6SM BKN060=



000
FTUS41 KCTP 020418 AAB
TAFUNV
TAF AMD
KUNV 020418Z 0204/0224 VRB03KT 2SM -SN BR OVC008
     FM020600 24008KT 4SM -SHSN BR OVC020
     FM020700 29010KT P6SM VCSH OVC020
     FM021200 29014G24KT P6SM BKN035
     FM021800 30014G24KT P6SM BKN060=



000
FTUS41 KCTP 020418 AAB
TAFUNV
TAF AMD
KUNV 020418Z 0204/0224 VRB03KT 2SM -SN BR OVC008
     FM020600 24008KT 4SM -SHSN BR OVC020
     FM020700 29010KT P6SM VCSH OVC020
     FM021200 29014G24KT P6SM BKN035
     FM021800 30014G24KT P6SM BKN060=



000
FTUS41 KCTP 020418 AAB
TAFUNV
TAF AMD
KUNV 020418Z 0204/0224 VRB03KT 2SM -SN BR OVC008
     FM020600 24008KT 4SM -SHSN BR OVC020
     FM020700 29010KT P6SM VCSH OVC020
     FM021200 29014G24KT P6SM BKN035
     FM021800 30014G24KT P6SM BKN060=



000
FTUS41 KCTP 020417 AAB
TAFAOO
TAF AMD
KAOO 020417Z 0204/0224 VRB03KT 1 1/2SM -FZRA BR OVC020
     FM020600 25008KT 4SM -SHSN BR OVC020
     FM020700 29010KT P6SM VCSH OVC020
     FM021200 29014G21KT P6SM BKN035
     FM021800 30014G21KT P6SM BKN060=



000
FTUS41 KCTP 020417 AAB
TAFAOO
TAF AMD
KAOO 020417Z 0204/0224 VRB03KT 1 1/2SM -FZRA BR OVC020
     FM020600 25008KT 4SM -SHSN BR OVC020
     FM020700 29010KT P6SM VCSH OVC020
     FM021200 29014G21KT P6SM BKN035
     FM021800 30014G21KT P6SM BKN060=



000
FTUS41 KCTP 020415 AAC
TAFJST
TAF AMD
KJST 020415Z 0204/0224 26011KT 3SM -SN BR OVC003
     FM020900 29010G17KT 4SM -SHSN BR OVC006
     FM021300 28015G25KT 4SM -SHSN OVC009
     FM021800 29015G25KT 5SM -SHSN OVC025=



000
FTUS41 KCTP 020415 AAC
TAFJST
TAF AMD
KJST 020415Z 0204/0224 26011KT 3SM -SN BR OVC003
     FM020900 29010G17KT 4SM -SHSN BR OVC006
     FM021300 28015G25KT 4SM -SHSN OVC009
     FM021800 29015G25KT 5SM -SHSN OVC025=



000
FTUS41 KCTP 020415 AAC
TAFJST
TAF AMD
KJST 020415Z 0204/0224 26011KT 3SM -SN BR OVC003
     FM020900 29010G17KT 4SM -SHSN BR OVC006
     FM021300 28015G25KT 4SM -SHSN OVC009
     FM021800 29015G25KT 5SM -SHSN OVC025=



000
FTUS41 KCTP 020415 AAC
TAFJST
TAF AMD
KJST 020415Z 0204/0224 26011KT 3SM -SN BR OVC003
     FM020900 29010G17KT 4SM -SHSN BR OVC006
     FM021300 28015G25KT 4SM -SHSN OVC009
     FM021800 29015G25KT 5SM -SHSN OVC025=



000
FTUS41 KCTP 020413 AAC
TAFBFD
TAF AMD
KBFD 020413Z 0204/0224 27008KT P6SM VCSH OVC010
     FM021300 29010KT P6SM VCSH OVC020
     FM021800 30013G21KT P6SM BKN025
     FM022100 30010KT P6SM BKN050=



000
FTUS41 KCTP 020413 AAC
TAFBFD
TAF AMD
KBFD 020413Z 0204/0224 27008KT P6SM VCSH OVC010
     FM021300 29010KT P6SM VCSH OVC020
     FM021800 30013G21KT P6SM BKN025
     FM022100 30010KT P6SM BKN050=



000
FTUS41 KCTP 020413 AAC
TAFBFD
TAF AMD
KBFD 020413Z 0204/0224 27008KT P6SM VCSH OVC010
     FM021300 29010KT P6SM VCSH OVC020
     FM021800 30013G21KT P6SM BKN025
     FM022100 30010KT P6SM BKN050=



000
FTUS41 KCTP 020413 AAC
TAFBFD
TAF AMD
KBFD 020413Z 0204/0224 27008KT P6SM VCSH OVC010
     FM021300 29010KT P6SM VCSH OVC020
     FM021800 30013G21KT P6SM BKN025
     FM022100 30010KT P6SM BKN050=



000
FTUS41 KCTP 020256 AAA
TAFMDT
TAF AMD
KMDT 020256Z 0203/0224 09004KT 2SM -FZDZ BR OVC005
     FM020400 21006KT 5SM -FZDZSN BR OVC015
     FM020800 29008KT P6SM VCSH OVC030
     FM021000 31011KT P6SM OVC045
     FM021600 31014G21KT P6SM SCT050=



000
FTUS41 KCTP 020256 AAA
TAFMDT
TAF AMD
KMDT 020256Z 0203/0224 09004KT 2SM -FZDZ BR OVC005
     FM020400 21006KT 5SM -FZDZSN BR OVC015
     FM020800 29008KT P6SM VCSH OVC030
     FM021000 31011KT P6SM OVC045
     FM021600 31014G21KT P6SM SCT050=



000
FTUS41 KCTP 020254 AAA
TAFIPT
TAF AMD
KIPT 020254Z 0203/0224 09006KT 3SM -SN BR OVC022 WS020/24025KT
     FM020400 12010KT 5SM -SHSN BR OVC025 WS020/26025KT
     FM020700 29008KT P6SM VCSH OVC025
     FM021200 28011KT P6SM BKN035
     FM021500 28014KT P6SM BKN050=



000
FTUS41 KCTP 020253 AAA
TAFUNV
TAF AMD
KUNV 020253Z 0203/0224 21005KT 1SM -SN BR OVC015
     FM020500 24008KT 4SM -SHSN BR OVC020
     FM020700 29010KT 6SM -SHSN BR OVC020
     FM021200 29014G21KT P6SM BKN035
     FM021800 30014G21KT P6SM BKN060=



000
FTUS41 KCTP 020252 AAB
TAFJST
TAF AMD
KJST 020252Z 0203/0224 25009KT 3SM -SN BR BKN004 OVC010
      TEMPO 0203/0204 4SM -RASN BR OVC009
     FM020700 29010G17KT 3SM -SHSN BR OVC006
     FM021300 28013G23KT 4SM -SHSN OVC015
     FM021800 29015G25KT 5SM -SHSN OVC025=



000
FTUS41 KCTP 020251 AAB
TAFBFD
TAF AMD
KBFD 020251Z 0203/0224 28005KT 4SM BR VCSH OVC005
     FM020800 29010KT 5SM -SHSN BR OVC015
     FM021800 30013G17KT P6SM VCSH OVC025
     FM022100 30010KT P6SM BKN050=



000
FTUS41 KCTP 020251 AAB
TAFBFD
TAF AMD
KBFD 020251Z 0203/0224 28005KT 4SM BR VCSH OVC005
     FM020800 29010KT 5SM -SHSN BR OVC015
     FM021800 30013G17KT P6SM VCSH OVC025
     FM022100 30010KT P6SM BKN050=



000
FTUS41 KCTP 020148 AAA
TAFAOO
TAF AMD
KAOO 020148Z 0202/0224 10005KT 1SM -FZRA BR OVC018
     FM020300 25008KT 4SM -SHSN BR OVC020
     FM020600 29010KT P6SM VCSH OVC020
     FM021200 29014G21KT P6SM BKN035
     FM021800 30014G21KT P6SM BKN060=



000
FTUS41 KCTP 020148 AAA
TAFAOO
TAF AMD
KAOO 020148Z 0202/0224 10005KT 1SM -FZRA BR OVC018
     FM020300 25008KT 4SM -SHSN BR OVC020
     FM020600 29010KT P6SM VCSH OVC020
     FM021200 29014G21KT P6SM BKN035
     FM021800 30014G21KT P6SM BKN060=



000
FTUS41 KCTP 020148 AAA
TAFAOO
TAF AMD
KAOO 020148Z 0202/0224 10005KT 1SM -FZRA BR OVC018
     FM020300 25008KT 4SM -SHSN BR OVC020
     FM020600 29010KT P6SM VCSH OVC020
     FM021200 29014G21KT P6SM BKN035
     FM021800 30014G21KT P6SM BKN060=



000
FTUS41 KCTP 020148 AAA
TAFAOO
TAF AMD
KAOO 020148Z 0202/0224 10005KT 1SM -FZRA BR OVC018
     FM020300 25008KT 4SM -SHSN BR OVC020
     FM020600 29010KT P6SM VCSH OVC020
     FM021200 29014G21KT P6SM BKN035
     FM021800 30014G21KT P6SM BKN060=



000
FTUS41 KCTP 020147 AAA
TAFJST
TAF AMD
KJST 020147Z 0202/0224 25009KT 3SM -SN BR BKN006 OVC010
      TEMPO 0202/0204 4SM -RASN BR OVC009
     FM020700 29010G17KT 3SM -SHSN BR OVC006
     FM021300 28013G23KT 4SM -SHSN OVC015
     FM021800 29015G25KT 5SM -SHSN OVC025=



000
FTUS41 KCTP 020147 AAA
TAFJST
TAF AMD
KJST 020147Z 0202/0224 25009KT 3SM -SN BR BKN006 OVC010
      TEMPO 0202/0204 4SM -RASN BR OVC009
     FM020700 29010G17KT 3SM -SHSN BR OVC006
     FM021300 28013G23KT 4SM -SHSN OVC015
     FM021800 29015G25KT 5SM -SHSN OVC025=



000
FTUS41 KCTP 020147 AAA
TAFJST
TAF AMD
KJST 020147Z 0202/0224 25009KT 3SM -SN BR BKN006 OVC010
      TEMPO 0202/0204 4SM -RASN BR OVC009
     FM020700 29010G17KT 3SM -SHSN BR OVC006
     FM021300 28013G23KT 4SM -SHSN OVC015
     FM021800 29015G25KT 5SM -SHSN OVC025=



000
FTUS41 KCTP 020145 AAA
TAFBFD
TAF AMD
KBFD 020145Z 0202/0224 28005KT 3SM -SN BR BKN006 OVC015
     FM021000 29010KT 5SM -SHSN BR OVC015
     FM021800 30013G17KT P6SM VCSH OVC025
     FM022100 30010KT P6SM BKN050=



000
FTUS41 KCTP 020145 AAA
TAFBFD
TAF AMD
KBFD 020145Z 0202/0224 28005KT 3SM -SN BR BKN006 OVC015
     FM021000 29010KT 5SM -SHSN BR OVC015
     FM021800 30013G17KT P6SM VCSH OVC025
     FM022100 30010KT P6SM BKN050=



000
FTUS41 KCTP 012332
TAFUNV
TAF
KUNV 012332Z 0200/0224 21005KT 1SM -SN BR OVC015
      TEMPO 0201/0203 3/4SM -SN BR OVC009
     FM020300 24008KT 4SM -SHSN BR OVC020
     FM020600 29010KT 6SM -SHSN BR OVC020
     FM021200 29014G21KT P6SM BKN035
     FM021800 30014G21KT P6SM BKN060=



000
FTUS41 KCTP 012332
TAFJST
TAF
KJST 012332Z 0200/0224 25009KT 5SM -RA BR BKN006 OVC010
      TEMPO 0200/0202 25009KT 1SM -FZRASN BR OVC004
     FM020200 27008KT 1SM -SHSN BR OVC004
     FM020700 29010G17KT 3SM -SHSN BR OVC006
     FM021300 28013G23KT 4SM -SHSN OVC015
     FM021800 29015G25KT 5SM -SHSN OVC025=



000
FTUS41 KCTP 012332
TAFBFD
TAF
KBFD 012332Z 0200/0224 28005KT 1SM -SN BR OVC006
     FM020130 29008KT 2SM -SHSN BR OVC009
     FM021000 29010KT 5SM -SHSN BR OVC015
     FM021800 30013G17KT P6SM VCSH OVC025
     FM022100 30010KT P6SM BKN050=



000
FTUS41 KCTP 012332
TAFAOO
TAF
KAOO 012332Z 0200/0224 22005KT 3SM -SN BR OVC018
      TEMPO 0201/0203 3/4SM -SN BR OVC009
     FM020300 24008KT 4SM -SHSN BR OVC020
     FM020600 29010KT 6SM -SHSN BR OVC020
     FM021200 29014G21KT P6SM BKN035
     FM021800 30014G21KT P6SM BKN060=



000
FTUS41 KCTP 012332
TAFMDT
TAF
KMDT 012332Z 0200/0224 09004KT 3SM -FZRAPL BR OVC006
     FM020130 21006KT 5SM -SHSN BR OVC015
     FM020800 29008KT P6SM VCSH OVC030
     FM021000 31011KT P6SM OVC045
     FM021600 31014G21KT P6SM SCT050=



000
FTUS41 KCTP 012332
TAFIPT
TAF
KIPT 012332Z 0200/0224 11010KT 3SM -SN BR BKN015 OVC025
      WS020/24025KT
      TEMPO 0200/0202 3/4SM -SN BR OVC009
     FM020300 12010KT 6SM -SHSN BR OVC020 WS020/26025KT
     FM020700 29008KT P6SM VCSH OVC025
     FM021200 28011KT P6SM BKN035
     FM021500 28014KT P6SM BKN050=



000
FTUS41 KCTP 012332
TAFBFD
TAF
KBFD 012332Z 0200/0224 28005KT 1SM -SN BR OVC006
     FM020130 29008KT 2SM -SHSN BR OVC009
     FM021000 29010KT 5SM -SHSN BR OVC015
     FM021800 30013G17KT P6SM VCSH OVC025
     FM022100 30010KT P6SM BKN050=



000
FTUS41 KCTP 012332
TAFBFD
TAF
KBFD 012332Z 0200/0224 28005KT 1SM -SN BR OVC006
     FM020130 29008KT 2SM -SHSN BR OVC009
     FM021000 29010KT 5SM -SHSN BR OVC015
     FM021800 30013G17KT P6SM VCSH OVC025
     FM022100 30010KT P6SM BKN050=



000
FTUS41 KCTP 012332
TAFAOO
TAF
KAOO 012332Z 0200/0224 22005KT 3SM -SN BR OVC018
      TEMPO 0201/0203 3/4SM -SN BR OVC009
     FM020300 24008KT 4SM -SHSN BR OVC020
     FM020600 29010KT 6SM -SHSN BR OVC020
     FM021200 29014G21KT P6SM BKN035
     FM021800 30014G21KT P6SM BKN060=



000
FTUS41 KCTP 012332
TAFIPT
TAF
KIPT 012332Z 0200/0224 11010KT 3SM -SN BR BKN015 OVC025
      WS020/24025KT
      TEMPO 0200/0202 3/4SM -SN BR OVC009
     FM020300 12010KT 6SM -SHSN BR OVC020 WS020/26025KT
     FM020700 29008KT P6SM VCSH OVC025
     FM021200 28011KT P6SM BKN035
     FM021500 28014KT P6SM BKN050=



000
FTUS41 KCTP 012332
TAFUNV
TAF
KUNV 012332Z 0200/0224 21005KT 1SM -SN BR OVC015
      TEMPO 0201/0203 3/4SM -SN BR OVC009
     FM020300 24008KT 4SM -SHSN BR OVC020
     FM020600 29010KT 6SM -SHSN BR OVC020
     FM021200 29014G21KT P6SM BKN035
     FM021800 30014G21KT P6SM BKN060=



000
FTUS41 KCTP 012332
TAFJST
TAF
KJST 012332Z 0200/0224 25009KT 5SM -RA BR BKN006 OVC010
      TEMPO 0200/0202 25009KT 1SM -FZRASN BR OVC004
     FM020200 27008KT 1SM -SHSN BR OVC004
     FM020700 29010G17KT 3SM -SHSN BR OVC006
     FM021300 28013G23KT 4SM -SHSN OVC015
     FM021800 29015G25KT 5SM -SHSN OVC025=



000
FTUS41 KCTP 012332
TAFIPT
TAF
KIPT 012332Z 0200/0224 11010KT 3SM -SN BR BKN015 OVC025
      WS020/24025KT
      TEMPO 0200/0202 3/4SM -SN BR OVC009
     FM020300 12010KT 6SM -SHSN BR OVC020 WS020/26025KT
     FM020700 29008KT P6SM VCSH OVC025
     FM021200 28011KT P6SM BKN035
     FM021500 28014KT P6SM BKN050=



000
FTUS41 KCTP 012332
TAFJST
TAF
KJST 012332Z 0200/0224 25009KT 5SM -RA BR BKN006 OVC010
      TEMPO 0200/0202 25009KT 1SM -FZRASN BR OVC004
     FM020200 27008KT 1SM -SHSN BR OVC004
     FM020700 29010G17KT 3SM -SHSN BR OVC006
     FM021300 28013G23KT 4SM -SHSN OVC015
     FM021800 29015G25KT 5SM -SHSN OVC025=



000
FTUS41 KCTP 012332
TAFUNV
TAF
KUNV 012332Z 0200/0224 21005KT 1SM -SN BR OVC015
      TEMPO 0201/0203 3/4SM -SN BR OVC009
     FM020300 24008KT 4SM -SHSN BR OVC020
     FM020600 29010KT 6SM -SHSN BR OVC020
     FM021200 29014G21KT P6SM BKN035
     FM021800 30014G21KT P6SM BKN060=



000
FTUS41 KCTP 012332
TAFMDT
TAF
KMDT 012332Z 0200/0224 09004KT 3SM -FZRAPL BR OVC006
     FM020130 21006KT 5SM -SHSN BR OVC015
     FM020800 29008KT P6SM VCSH OVC030
     FM021000 31011KT P6SM OVC045
     FM021600 31014G21KT P6SM SCT050=



000
FTUS41 KCTP 012332
TAFIPT
TAF
KIPT 012332Z 0200/0224 11010KT 3SM -SN BR BKN015 OVC025
      WS020/24025KT
      TEMPO 0200/0202 3/4SM -SN BR OVC009
     FM020300 12010KT 6SM -SHSN BR OVC020 WS020/26025KT
     FM020700 29008KT P6SM VCSH OVC025
     FM021200 28011KT P6SM BKN035
     FM021500 28014KT P6SM BKN050=



000
FTUS41 KCTP 012332
TAFUNV
TAF
KUNV 012332Z 0200/0224 21005KT 1SM -SN BR OVC015
      TEMPO 0201/0203 3/4SM -SN BR OVC009
     FM020300 24008KT 4SM -SHSN BR OVC020
     FM020600 29010KT 6SM -SHSN BR OVC020
     FM021200 29014G21KT P6SM BKN035
     FM021800 30014G21KT P6SM BKN060=



000
FTUS41 KCTP 012332
TAFMDT
TAF
KMDT 012332Z 0200/0224 09004KT 3SM -FZRAPL BR OVC006
     FM020130 21006KT 5SM -SHSN BR OVC015
     FM020800 29008KT P6SM VCSH OVC030
     FM021000 31011KT P6SM OVC045
     FM021600 31014G21KT P6SM SCT050=



000
FTUS41 KCTP 012332
TAFJST
TAF
KJST 012332Z 0200/0224 25009KT 5SM -RA BR BKN006 OVC010
      TEMPO 0200/0202 25009KT 1SM -FZRASN BR OVC004
     FM020200 27008KT 1SM -SHSN BR OVC004
     FM020700 29010G17KT 3SM -SHSN BR OVC006
     FM021300 28013G23KT 4SM -SHSN OVC015
     FM021800 29015G25KT 5SM -SHSN OVC025=



000
FTUS41 KCTP 012332
TAFAOO
TAF
KAOO 012332Z 0200/0224 22005KT 3SM -SN BR OVC018
      TEMPO 0201/0203 3/4SM -SN BR OVC009
     FM020300 24008KT 4SM -SHSN BR OVC020
     FM020600 29010KT 6SM -SHSN BR OVC020
     FM021200 29014G21KT P6SM BKN035
     FM021800 30014G21KT P6SM BKN060=



000
FTUS41 KCTP 012332
TAFMDT
TAF
KMDT 012332Z 0200/0224 09004KT 3SM -FZRAPL BR OVC006
     FM020130 21006KT 5SM -SHSN BR OVC015
     FM020800 29008KT P6SM VCSH OVC030
     FM021000 31011KT P6SM OVC045
     FM021600 31014G21KT P6SM SCT050=



000
FTUS41 KCTP 012332
TAFBFD
TAF
KBFD 012332Z 0200/0224 28005KT 1SM -SN BR OVC006
     FM020130 29008KT 2SM -SHSN BR OVC009
     FM021000 29010KT 5SM -SHSN BR OVC015
     FM021800 30013G17KT P6SM VCSH OVC025
     FM022100 30010KT P6SM BKN050=



000
FTUS41 KCTP 012332
TAFAOO
TAF
KAOO 012332Z 0200/0224 22005KT 3SM -SN BR OVC018
      TEMPO 0201/0203 3/4SM -SN BR OVC009
     FM020300 24008KT 4SM -SHSN BR OVC020
     FM020600 29010KT 6SM -SHSN BR OVC020
     FM021200 29014G21KT P6SM BKN035
     FM021800 30014G21KT P6SM BKN060=



000
FTUS41 KCTP 012209 AAC
TAFMDT
TAF AMD
KMDT 012209Z 0122/0218 08004KT 2SM -FZRAPL BR OVC007
     FM020000 15005KT 3SM -RA OVC025
     FM020100 21006KT 6SM -SHSN BR OVC025
     FM020800 29008KT P6SM OVC030=



000
FTUS41 KCTP 012209 AAC
TAFMDT
TAF AMD
KMDT 012209Z 0122/0218 08004KT 2SM -FZRAPL BR OVC007
     FM020000 15005KT 3SM -RA OVC025
     FM020100 21006KT 6SM -SHSN BR OVC025
     FM020800 29008KT P6SM OVC030=



000
FTUS41 KCTP 012209 AAC
TAFMDT
TAF AMD
KMDT 012209Z 0122/0218 08004KT 2SM -FZRAPL BR OVC007
     FM020000 15005KT 3SM -RA OVC025
     FM020100 21006KT 6SM -SHSN BR OVC025
     FM020800 29008KT P6SM OVC030=



000
FTUS41 KCTP 012209 AAC
TAFMDT
TAF AMD
KMDT 012209Z 0122/0218 08004KT 2SM -FZRAPL BR OVC007
     FM020000 15005KT 3SM -RA OVC025
     FM020100 21006KT 6SM -SHSN BR OVC025
     FM020800 29008KT P6SM OVC030=



000
FTUS41 KCTP 012208 AAD
TAFIPT
TAF AMD
KIPT 012208Z 0122/0218 11010KT 3SM -SN BKN015 OVC025
      TEMPO 0122/0202 2SM -SN BR OVC010
     FM020300 21006KT 6SM -SHSN BR OVC020
     FM020600 29008KT P6SM VCSH OVC030=



000
FTUS41 KCTP 012208 AAD
TAFIPT
TAF AMD
KIPT 012208Z 0122/0218 11010KT 3SM -SN BKN015 OVC025
      TEMPO 0122/0202 2SM -SN BR OVC010
     FM020300 21006KT 6SM -SHSN BR OVC020
     FM020600 29008KT P6SM VCSH OVC030=



000
FTUS41 KCTP 012208 AAD
TAFIPT
TAF AMD
KIPT 012208Z 0122/0218 11010KT 3SM -SN BKN015 OVC025
      TEMPO 0122/0202 2SM -SN BR OVC010
     FM020300 21006KT 6SM -SHSN BR OVC020
     FM020600 29008KT P6SM VCSH OVC030=



000
FTUS41 KCTP 012208 AAD
TAFIPT
TAF AMD
KIPT 012208Z 0122/0218 11010KT 3SM -SN BKN015 OVC025
      TEMPO 0122/0202 2SM -SN BR OVC010
     FM020300 21006KT 6SM -SHSN BR OVC020
     FM020600 29008KT P6SM VCSH OVC030=



000
FTUS41 KCTP 012207 AAC
TAFUNV
TAF AMD
KUNV 012207Z 0122/0218 21005KT 1SM -SN BR OVC018
     FM020000 23006KT 4SM -SHSN BR OVC020
     FM020600 29010KT 6SM -SHSN BR OVC025=



000
FTUS41 KCTP 012207 AAC
TAFUNV
TAF AMD
KUNV 012207Z 0122/0218 21005KT 1SM -SN BR OVC018
     FM020000 23006KT 4SM -SHSN BR OVC020
     FM020600 29010KT 6SM -SHSN BR OVC025=



000
FTUS41 KCTP 012207 AAC
TAFUNV
TAF AMD
KUNV 012207Z 0122/0218 21005KT 1SM -SN BR OVC018
     FM020000 23006KT 4SM -SHSN BR OVC020
     FM020600 29010KT 6SM -SHSN BR OVC025=



000
FTUS41 KCTP 012207 AAC
TAFUNV
TAF AMD
KUNV 012207Z 0122/0218 21005KT 1SM -SN BR OVC018
     FM020000 23006KT 4SM -SHSN BR OVC020
     FM020600 29010KT 6SM -SHSN BR OVC025=



000
FTUS41 KCTP 012206 AAC
TAFAOO
TAF AMD
KAOO 012206Z 0122/0218 22005KT 1SM -SN BR OVC012
     FM020300 21006KT 4SM -SHSN BR OVC017
     FM020600 29010KT 6SM -SHSN BR OVC020=



000
FTUS41 KCTP 012206 AAC
TAFAOO
TAF AMD
KAOO 012206Z 0122/0218 22005KT 1SM -SN BR OVC012
     FM020300 21006KT 4SM -SHSN BR OVC017
     FM020600 29010KT 6SM -SHSN BR OVC020=



000
FTUS41 KCTP 012206 AAC
TAFAOO
TAF AMD
KAOO 012206Z 0122/0218 22005KT 1SM -SN BR OVC012
     FM020300 21006KT 4SM -SHSN BR OVC017
     FM020600 29010KT 6SM -SHSN BR OVC020=



000
FTUS41 KCTP 012206 AAC
TAFAOO
TAF AMD
KAOO 012206Z 0122/0218 22005KT 1SM -SN BR OVC012
     FM020300 21006KT 4SM -SHSN BR OVC017
     FM020600 29010KT 6SM -SHSN BR OVC020=



000
FTUS41 KCTP 012205 AAB
TAFJST
TAF AMD
KJST 012205Z 0122/0218 21009KT 1SM -SN BR OVC002
      TEMPO 0123/0203 21009KT 2SM -FZRASN BR OVC004
     FM020300 26008KT 1 1/2SM -SHSN BR OVC003
     FM020600 29010G17KT 3SM -SHSN BR OVC006=



000
FTUS41 KCTP 012205 AAB
TAFJST
TAF AMD
KJST 012205Z 0122/0218 21009KT 1SM -SN BR OVC002
      TEMPO 0123/0203 21009KT 2SM -FZRASN BR OVC004
     FM020300 26008KT 1 1/2SM -SHSN BR OVC003
     FM020600 29010G17KT 3SM -SHSN BR OVC006=



000
FTUS41 KCTP 012159 AAC
TAFBFD
TAF AMD
KBFD 012159Z 0122/0218 22007KT 1/2SM SN FG BKN006 OVC010
     FM020100 26008KT 1SM -SHSN BR OVC005
     FM020400 29010KT 2SM -SHSN BR OVC007
     FM020900 29010KT 5SM -SHSN BR OVC010=



000
FTUS41 KCTP 012159 AAC
TAFBFD
TAF AMD
KBFD 012159Z 0122/0218 22007KT 1/2SM SN FG BKN006 OVC010
     FM020100 26008KT 1SM -SHSN BR OVC005
     FM020400 29010KT 2SM -SHSN BR OVC007
     FM020900 29010KT 5SM -SHSN BR OVC010=



000
FTUS41 KCTP 012101 AAB
TAFBFD
TAF AMD
KBFD 012101Z 0121/0218 22007KT 1/2SM SN OVC007
      TEMPO 0121/0122 1/4SM SN FZFG OVC004
     FM020100 26008KT 1SM -SHSN BR OVC005
     FM020400 29010KT 2SM -SHSN BR OVC007
     FM020900 29010KT 5SM -SHSN BR OVC010=



000
FTUS41 KCTP 012101 AAB
TAFBFD
TAF AMD
KBFD 012101Z 0121/0218 22007KT 1/2SM SN OVC007
      TEMPO 0121/0122 1/4SM SN FZFG OVC004
     FM020100 26008KT 1SM -SHSN BR OVC005
     FM020400 29010KT 2SM -SHSN BR OVC007
     FM020900 29010KT 5SM -SHSN BR OVC010=



000
FTUS41 KCTP 012101 AAB
TAFBFD
TAF AMD
KBFD 012101Z 0121/0218 22007KT 1/2SM SN OVC007
      TEMPO 0121/0122 1/4SM SN FZFG OVC004
     FM020100 26008KT 1SM -SHSN BR OVC005
     FM020400 29010KT 2SM -SHSN BR OVC007
     FM020900 29010KT 5SM -SHSN BR OVC010=



000
FTUS41 KCTP 012101 AAB
TAFBFD
TAF AMD
KBFD 012101Z 0121/0218 22007KT 1/2SM SN OVC007
      TEMPO 0121/0122 1/4SM SN FZFG OVC004
     FM020100 26008KT 1SM -SHSN BR OVC005
     FM020400 29010KT 2SM -SHSN BR OVC007
     FM020900 29010KT 5SM -SHSN BR OVC010=



000
FTUS41 KCTP 012057 AAB
TAFUNV
TAF AMD
KUNV 012057Z 0121/0218 20006KT 3/4SM -SN BR OVC017
      TEMPO 0122/0124 2SM -SN OVC020
     FM020000 23006KT 4SM -SHSN BR OVC020
     FM020600 29010KT 6SM -SHSN BR OVC025=



000
FTUS41 KCTP 012057 AAB
TAFUNV
TAF AMD
KUNV 012057Z 0121/0218 20006KT 3/4SM -SN BR OVC017
      TEMPO 0122/0124 2SM -SN OVC020
     FM020000 23006KT 4SM -SHSN BR OVC020
     FM020600 29010KT 6SM -SHSN BR OVC025=



000
FTUS41 KCTP 012057 AAB
TAFUNV
TAF AMD
KUNV 012057Z 0121/0218 20006KT 3/4SM -SN BR OVC017
      TEMPO 0122/0124 2SM -SN OVC020
     FM020000 23006KT 4SM -SHSN BR OVC020
     FM020600 29010KT 6SM -SHSN BR OVC025=



000
FTUS41 KCTP 012057 AAB
TAFUNV
TAF AMD
KUNV 012057Z 0121/0218 20006KT 3/4SM -SN BR OVC017
      TEMPO 0122/0124 2SM -SN OVC020
     FM020000 23006KT 4SM -SHSN BR OVC020
     FM020600 29010KT 6SM -SHSN BR OVC025=



000
FTUS41 KCTP 012055 AAB
TAFAOO
TAF AMD
KAOO 012055Z 0121/0218 19006KT 1 1/2SM -SN BR OVC012
     FM020300 21006KT 4SM -SHSN BR OVC017
     FM020600 29010KT 6SM -SHSN BR OVC020=



000
FTUS41 KCTP 012055 AAB
TAFAOO
TAF AMD
KAOO 012055Z 0121/0218 19006KT 1 1/2SM -SN BR OVC012
     FM020300 21006KT 4SM -SHSN BR OVC017
     FM020600 29010KT 6SM -SHSN BR OVC020=



000
FTUS41 KCTP 012044 AAC
TAFIPT
TAF AMD
KIPT 012044Z 0121/0218 VRB05KT 3SM -SN OVC025
      TEMPO 0121/0123 2SM -SN BR OVC015
     FM020300 21006KT 6SM -SHSN BR OVC020
     FM020600 29008KT P6SM VCSH OVC030=



000
FTUS41 KCTP 012044 AAC
TAFIPT
TAF AMD
KIPT 012044Z 0121/0218 VRB05KT 3SM -SN OVC025
      TEMPO 0121/0123 2SM -SN BR OVC015
     FM020300 21006KT 6SM -SHSN BR OVC020
     FM020600 29008KT P6SM VCSH OVC030=



000
FTUS41 KCTP 012044 AAC
TAFIPT
TAF AMD
KIPT 012044Z 0121/0218 VRB05KT 3SM -SN OVC025
      TEMPO 0121/0123 2SM -SN BR OVC015
     FM020300 21006KT 6SM -SHSN BR OVC020
     FM020600 29008KT P6SM VCSH OVC030=



000
FTUS41 KCTP 012034 AAB
TAFMDT
TAF AMD
KMDT 012034Z 0121/0218 12004KT 2SM -FZRASN BR BKN015 OVC025
     FM012300 VRB03KT 3SM -RA OVC025
     FM020100 21006KT 6SM -SHSN BR OVC025
     FM020800 29008KT P6SM OVC030=



000
FTUS41 KCTP 012034 AAB
TAFMDT
TAF AMD
KMDT 012034Z 0121/0218 12004KT 2SM -FZRASN BR BKN015 OVC025
     FM012300 VRB03KT 3SM -RA OVC025
     FM020100 21006KT 6SM -SHSN BR OVC025
     FM020800 29008KT P6SM OVC030=



000
FTUS41 KCTP 012031 AAB
TAFIPT
TAF AMD
KIPT 012031Z 0121/0218 VRB05KT 2SM -SN BKN017 OVC030
     FM012200 09006KT 1 1/2SM -SN BR OVC012
     FM020300 21006KT 4SM -SHSN BR OVC012
     FM020600 29008KT 6SM -SHSN BR OVC020=



000
FTUS41 KCTP 012031 AAB
TAFIPT
TAF AMD
KIPT 012031Z 0121/0218 VRB05KT 2SM -SN BKN017 OVC030
     FM012200 09006KT 1 1/2SM -SN BR OVC012
     FM020300 21006KT 4SM -SHSN BR OVC012
     FM020600 29008KT 6SM -SHSN BR OVC020=



000
FTUS41 KCTP 011904 AAA
TAFIPT
TAF AMD
KIPT 011904Z 0119/0218 VRB05KT 1SM -SN BKN017 OVC024
     FM012200 09006KT 3/4SM -SN BR OVC008
     FM020300 21006KT 1 1/2SM -SHSN BR OVC012
     FM020600 29008KT 5SM -SHSN BR OVC020=



000
FTUS41 KCTP 011904 AAA
TAFJST
TAF AMD
KJST 011904Z 0119/0218 21011KT 3/4SM -SN BR OVC002
     FM012000 20009KT 1/2SM -FZRASN FG OVC003
     FM020300 26008KT 1 1/2SM -SHSN BR OVC003
     FM020600 29010G17KT 3SM -SHSN BR OVC006=



000
FTUS41 KCTP 011904 AAA
TAFUNV
TAF AMD
KUNV 011904Z 0119/0218 21006KT 1/2SM SN FG BKN009 OVC015
     FM012200 21006KT 3/4SM -SN BR OVC007
     FM020300 21006KT 1 1/2SM -SHSN BR OVC012
     FM020600 29010KT 5SM -SHSN BR OVC020=



000
FTUS41 KCTP 011904 AAA
TAFUNV
TAF AMD
KUNV 011904Z 0119/0218 21006KT 1/2SM SN FG BKN009 OVC015
     FM012200 21006KT 3/4SM -SN BR OVC007
     FM020300 21006KT 1 1/2SM -SHSN BR OVC012
     FM020600 29010KT 5SM -SHSN BR OVC020=



000
FTUS41 KCTP 011904 AAA
TAFIPT
TAF AMD
KIPT 011904Z 0119/0218 VRB05KT 1SM -SN BKN017 OVC024
     FM012200 09006KT 3/4SM -SN BR OVC008
     FM020300 21006KT 1 1/2SM -SHSN BR OVC012
     FM020600 29008KT 5SM -SHSN BR OVC020=



000
FTUS41 KCTP 011904 AAA
TAFAOO
TAF AMD
KAOO 011904Z 0119/0218 21004KT 1/2SM SN FG BKN009 OVC015
     FM012200 21006KT 3/4SM -SN BR OVC007
     FM020300 21006KT 1 1/2SM -SHSN BR OVC012
     FM020600 29010KT 5SM -SHSN BR OVC020=



000
FTUS41 KCTP 011904 AAA
TAFMDT
TAF AMD
KMDT 011904Z 0119/0218 12004KT 3/4SM -SN BR BKN016 OVC026
     FM012100 15004KT 3/4SM -FZRASN BR OVC008
     FM020500 21006KT 1 1/2SM -SHSN BR OVC012
     FM020800 29008KT 5SM -SHSN BR OVC020=



000
FTUS41 KCTP 011904 AAA
TAFAOO
TAF AMD
KAOO 011904Z 0119/0218 21004KT 1/2SM SN FG BKN009 OVC015
     FM012200 21006KT 3/4SM -SN BR OVC007
     FM020300 21006KT 1 1/2SM -SHSN BR OVC012
     FM020600 29010KT 5SM -SHSN BR OVC020=



000
FTUS41 KCTP 011904 AAA
TAFMDT
TAF AMD
KMDT 011904Z 0119/0218 12004KT 3/4SM -SN BR BKN016 OVC026
     FM012100 15004KT 3/4SM -FZRASN BR OVC008
     FM020500 21006KT 1 1/2SM -SHSN BR OVC012
     FM020800 29008KT 5SM -SHSN BR OVC020=



000
FTUS41 KCTP 011904 AAA
TAFUNV
TAF AMD
KUNV 011904Z 0119/0218 21006KT 1/2SM SN FG BKN009 OVC015
     FM012200 21006KT 3/4SM -SN BR OVC007
     FM020300 21006KT 1 1/2SM -SHSN BR OVC012
     FM020600 29010KT 5SM -SHSN BR OVC020=



000
FTUS41 KCTP 011904 AAA
TAFJST
TAF AMD
KJST 011904Z 0119/0218 21011KT 3/4SM -SN BR OVC002
     FM012000 20009KT 1/2SM -FZRASN FG OVC003
     FM020300 26008KT 1 1/2SM -SHSN BR OVC003
     FM020600 29010G17KT 3SM -SHSN BR OVC006=



000
FTUS41 KCTP 011904 AAA
TAFAOO
TAF AMD
KAOO 011904Z 0119/0218 21004KT 1/2SM SN FG BKN009 OVC015
     FM012200 21006KT 3/4SM -SN BR OVC007
     FM020300 21006KT 1 1/2SM -SHSN BR OVC012
     FM020600 29010KT 5SM -SHSN BR OVC020=



000
FTUS41 KCTP 011904 AAA
TAFJST
TAF AMD
KJST 011904Z 0119/0218 21011KT 3/4SM -SN BR OVC002
     FM012000 20009KT 1/2SM -FZRASN FG OVC003
     FM020300 26008KT 1 1/2SM -SHSN BR OVC003
     FM020600 29010G17KT 3SM -SHSN BR OVC006=



000
FTUS41 KCTP 011904 AAA
TAFJST
TAF AMD
KJST 011904Z 0119/0218 21011KT 3/4SM -SN BR OVC002
     FM012000 20009KT 1/2SM -FZRASN FG OVC003
     FM020300 26008KT 1 1/2SM -SHSN BR OVC003
     FM020600 29010G17KT 3SM -SHSN BR OVC006=



000
FTUS41 KCTP 011904 AAA
TAFIPT
TAF AMD
KIPT 011904Z 0119/0218 VRB05KT 1SM -SN BKN017 OVC024
     FM012200 09006KT 3/4SM -SN BR OVC008
     FM020300 21006KT 1 1/2SM -SHSN BR OVC012
     FM020600 29008KT 5SM -SHSN BR OVC020=



000
FTUS41 KCTP 011904 AAA
TAFBFD
TAF AMD
KBFD 011904Z 0119/0218 22007KT 1/2SM SN BKN009 OVC012
     FM020100 26008KT 1 1/2SM -SHSN BR OVC003
     FM020600 29010KT 5SM -SHSN BR OVC006=



000
FTUS41 KCTP 011904 AAA
TAFBFD
TAF AMD
KBFD 011904Z 0119/0218 22007KT 1/2SM SN BKN009 OVC012
     FM020100 26008KT 1 1/2SM -SHSN BR OVC003
     FM020600 29010KT 5SM -SHSN BR OVC006=



000
FTUS41 KCTP 011904 AAA
TAFBFD
TAF AMD
KBFD 011904Z 0119/0218 22007KT 1/2SM SN BKN009 OVC012
     FM020100 26008KT 1 1/2SM -SHSN BR OVC003
     FM020600 29010KT 5SM -SHSN BR OVC006=



000
FTUS41 KCTP 011904 AAA
TAFUNV
TAF AMD
KUNV 011904Z 0119/0218 21006KT 1/2SM SN FG BKN009 OVC015
     FM012200 21006KT 3/4SM -SN BR OVC007
     FM020300 21006KT 1 1/2SM -SHSN BR OVC012
     FM020600 29010KT 5SM -SHSN BR OVC020=



000
FTUS41 KCTP 011904 AAA
TAFMDT
TAF AMD
KMDT 011904Z 0119/0218 12004KT 3/4SM -SN BR BKN016 OVC026
     FM012100 15004KT 3/4SM -FZRASN BR OVC008
     FM020500 21006KT 1 1/2SM -SHSN BR OVC012
     FM020800 29008KT 5SM -SHSN BR OVC020=



000
FTUS41 KCTP 011904 AAA
TAFMDT
TAF AMD
KMDT 011904Z 0119/0218 12004KT 3/4SM -SN BR BKN016 OVC026
     FM012100 15004KT 3/4SM -FZRASN BR OVC008
     FM020500 21006KT 1 1/2SM -SHSN BR OVC012
     FM020800 29008KT 5SM -SHSN BR OVC020=



000
FTUS41 KCTP 011904 AAA
TAFIPT
TAF AMD
KIPT 011904Z 0119/0218 VRB05KT 1SM -SN BKN017 OVC024
     FM012200 09006KT 3/4SM -SN BR OVC008
     FM020300 21006KT 1 1/2SM -SHSN BR OVC012
     FM020600 29008KT 5SM -SHSN BR OVC020=



000
FTUS41 KCTP 011904 AAA
TAFBFD
TAF AMD
KBFD 011904Z 0119/0218 22007KT 1/2SM SN BKN009 OVC012
     FM020100 26008KT 1 1/2SM -SHSN BR OVC003
     FM020600 29010KT 5SM -SHSN BR OVC006=



000
FTUS41 KCTP 011904 AAA
TAFAOO
TAF AMD
KAOO 011904Z 0119/0218 21004KT 1/2SM SN FG BKN009 OVC015
     FM012200 21006KT 3/4SM -SN BR OVC007
     FM020300 21006KT 1 1/2SM -SHSN BR OVC012
     FM020600 29010KT 5SM -SHSN BR OVC020=



000
FTUS41 KCTP 011734
TAFMDT
TAF
KMDT 011734Z 0118/0218 14006KT 3/4SM -SN BR BKN014 OVC029
     FM011900 15005KT 1SM -SNPL OVC013
     FM012100 15004KT 3/4SM -FZRASN BR OVC008
     FM020500 21006KT 1 1/2SM -SHSN BR OVC012
     FM020800 29008KT 5SM -SHSN BR OVC020=



000
FTUS41 KCTP 011734
TAFIPT
TAF
KIPT 011734Z 0118/0218 07005KT 1 1/2SM -SN OVC015
     FM012200 09006KT 3/4SM -SN BR OVC008
     FM020300 21006KT 1 1/2SM -SHSN BR OVC012
     FM020600 29008KT 5SM -SHSN BR OVC020=



000
FTUS41 KCTP 011734
TAFAOO
TAF
KAOO 011734Z 0118/0218 22007KT 3/4SM -SN BR VV017
     FM012200 21006KT 3/4SM -SN BR OVC007
     FM020300 21006KT 1 1/2SM -SHSN BR OVC012
     FM020600 29010KT 5SM -SHSN BR OVC020=



000
FTUS41 KCTP 011734
TAFBFD
TAF
KBFD 011734Z 0118/0218 19004KT 2SM -SN BR OVC007
     FM020100 26008KT 1 1/2SM -SHSN BR OVC003
     FM020600 29010KT 5SM -SHSN BR OVC006=



000
FTUS41 KCTP 011734
TAFAOO
TAF
KAOO 011734Z 0118/0218 22007KT 3/4SM -SN BR VV017
     FM012200 21006KT 3/4SM -SN BR OVC007
     FM020300 21006KT 1 1/2SM -SHSN BR OVC012
     FM020600 29010KT 5SM -SHSN BR OVC020=



000
FTUS41 KCTP 011734
TAFJST
TAF
KJST 011734Z 0118/0218 21007KT 1/2SM SN FZFG OVC004
     FM012000 20009KT 1/2SM -FZRASN FG OVC003
     FM020300 26008KT 1 1/2SM -SHSN BR OVC003
     FM020600 29010G17KT 3SM -SHSN BR OVC006=



000
FTUS41 KCTP 011734
TAFBFD
TAF
KBFD 011734Z 0118/0218 19004KT 2SM -SN BR OVC007
     FM020100 26008KT 1 1/2SM -SHSN BR OVC003
     FM020600 29010KT 5SM -SHSN BR OVC006=



000
FTUS41 KCTP 011734
TAFIPT
TAF
KIPT 011734Z 0118/0218 07005KT 1 1/2SM -SN OVC015
     FM012200 09006KT 3/4SM -SN BR OVC008
     FM020300 21006KT 1 1/2SM -SHSN BR OVC012
     FM020600 29008KT 5SM -SHSN BR OVC020=



000
FTUS41 KCTP 011734
TAFMDT
TAF
KMDT 011734Z 0118/0218 14006KT 3/4SM -SN BR BKN014 OVC029
     FM011900 15005KT 1SM -SNPL OVC013
     FM012100 15004KT 3/4SM -FZRASN BR OVC008
     FM020500 21006KT 1 1/2SM -SHSN BR OVC012
     FM020800 29008KT 5SM -SHSN BR OVC020=



000
FTUS41 KCTP 011734
TAFUNV
TAF
KUNV 011734Z 0118/0218 21006KT 1SM -SN OVC011
     FM012200 21006KT 3/4SM -SN BR OVC007
     FM020300 21006KT 1 1/2SM -SHSN BR OVC012
     FM020600 29010KT 5SM -SHSN BR OVC020=



000
FTUS41 KCTP 011734
TAFJST
TAF
KJST 011734Z 0118/0218 21007KT 1/2SM SN FZFG OVC004
     FM012000 20009KT 1/2SM -FZRASN FG OVC003
     FM020300 26008KT 1 1/2SM -SHSN BR OVC003
     FM020600 29010G17KT 3SM -SHSN BR OVC006=



000
FTUS41 KCTP 011734
TAFUNV
TAF
KUNV 011734Z 0118/0218 21006KT 1SM -SN OVC011
     FM012200 21006KT 3/4SM -SN BR OVC007
     FM020300 21006KT 1 1/2SM -SHSN BR OVC012
     FM020600 29010KT 5SM -SHSN BR OVC020=



000
FTUS41 KCTP 011734
TAFAOO
TAF
KAOO 011734Z 0118/0218 22007KT 3/4SM -SN BR VV017
     FM012200 21006KT 3/4SM -SN BR OVC007
     FM020300 21006KT 1 1/2SM -SHSN BR OVC012
     FM020600 29010KT 5SM -SHSN BR OVC020=



000
FTUS41 KCTP 011734
TAFBFD
TAF
KBFD 011734Z 0118/0218 19004KT 2SM -SN BR OVC007
     FM020100 26008KT 1 1/2SM -SHSN BR OVC003
     FM020600 29010KT 5SM -SHSN BR OVC006=



000
FTUS41 KCTP 011734
TAFJST
TAF
KJST 011734Z 0118/0218 21007KT 1/2SM SN FZFG OVC004
     FM012000 20009KT 1/2SM -FZRASN FG OVC003
     FM020300 26008KT 1 1/2SM -SHSN BR OVC003
     FM020600 29010G17KT 3SM -SHSN BR OVC006=



000
FTUS41 KCTP 011734
TAFUNV
TAF
KUNV 011734Z 0118/0218 21006KT 1SM -SN OVC011
     FM012200 21006KT 3/4SM -SN BR OVC007
     FM020300 21006KT 1 1/2SM -SHSN BR OVC012
     FM020600 29010KT 5SM -SHSN BR OVC020=



000
FTUS41 KCTP 011734
TAFMDT
TAF
KMDT 011734Z 0118/0218 14006KT 3/4SM -SN BR BKN014 OVC029
     FM011900 15005KT 1SM -SNPL OVC013
     FM012100 15004KT 3/4SM -FZRASN BR OVC008
     FM020500 21006KT 1 1/2SM -SHSN BR OVC012
     FM020800 29008KT 5SM -SHSN BR OVC020=



000
FTUS41 KCTP 011734
TAFIPT
TAF
KIPT 011734Z 0118/0218 07005KT 1 1/2SM -SN OVC015
     FM012200 09006KT 3/4SM -SN BR OVC008
     FM020300 21006KT 1 1/2SM -SHSN BR OVC012
     FM020600 29008KT 5SM -SHSN BR OVC020=



000
FTUS41 KCTP 011734
TAFAOO
TAF
KAOO 011734Z 0118/0218 22007KT 3/4SM -SN BR VV017
     FM012200 21006KT 3/4SM -SN BR OVC007
     FM020300 21006KT 1 1/2SM -SHSN BR OVC012
     FM020600 29010KT 5SM -SHSN BR OVC020=



000
FTUS41 KCTP 011734
TAFUNV
TAF
KUNV 011734Z 0118/0218 21006KT 1SM -SN OVC011
     FM012200 21006KT 3/4SM -SN BR OVC007
     FM020300 21006KT 1 1/2SM -SHSN BR OVC012
     FM020600 29010KT 5SM -SHSN BR OVC020=



000
FTUS41 KCTP 011734
TAFMDT
TAF
KMDT 011734Z 0118/0218 14006KT 3/4SM -SN BR BKN014 OVC029
     FM011900 15005KT 1SM -SNPL OVC013
     FM012100 15004KT 3/4SM -FZRASN BR OVC008
     FM020500 21006KT 1 1/2SM -SHSN BR OVC012
     FM020800 29008KT 5SM -SHSN BR OVC020=



000
FTUS41 KCTP 011734
TAFIPT
TAF
KIPT 011734Z 0118/0218 07005KT 1 1/2SM -SN OVC015
     FM012200 09006KT 3/4SM -SN BR OVC008
     FM020300 21006KT 1 1/2SM -SHSN BR OVC012
     FM020600 29008KT 5SM -SHSN BR OVC020=



000
FTUS41 KCTP 011734
TAFBFD
TAF
KBFD 011734Z 0118/0218 19004KT 2SM -SN BR OVC007
     FM020100 26008KT 1 1/2SM -SHSN BR OVC003
     FM020600 29010KT 5SM -SHSN BR OVC006=



000
FTUS41 KCTP 011734
TAFJST
TAF
KJST 011734Z 0118/0218 21007KT 1/2SM SN FZFG OVC004
     FM012000 20009KT 1/2SM -FZRASN FG OVC003
     FM020300 26008KT 1 1/2SM -SHSN BR OVC003
     FM020600 29010G17KT 3SM -SHSN BR OVC006=



000
FTUS41 KCTP 011610 AAD
TAFAOO
TAF AMD
KAOO 011610Z 0116/0212 22007KT 1SM -SN BR BKN021 OVC025
     FM011700 17006KT 1/2SM -SN FG BKN007 OVC015
     FM012200 21006KT 3/4SM -SN BR OVC007
     FM020300 21006KT 1 1/2SM -SHSN BR OVC012
     FM020600 29010KT 5SM -SHSN BR OVC020=



000
FTUS41 KCTP 011610 AAD
TAFUNV
TAF AMD
KUNV 011610Z 0116/0212 21010KT 1SM -SN BR SCT011 OVC020
     FM011700 19008KT 1/2SM -SN FG BKN009 OVC015
     FM012200 21006KT 3/4SM -SN BR OVC007
     FM020300 21006KT 1 1/2SM -SHSN BR OVC012
     FM020600 29010KT 5SM -SHSN BR OVC020=



000
FTUS41 KCTP 011610 AAB
TAFJST
TAF AMD
KJST 011610Z 0116/0212 20008KT 1 1/2SM -SN BR BKN006 OVC014
     FM011630 20006KT 1/2SM -SN FG OVC006
     FM012000 20009KT 1/2SM -FZRASN FG OVC003
     FM020300 26008KT 1 1/2SM -SHSN BR OVC003
     FM020600 29010G17KT 3SM -SHSN BR OVC006=



000
FTUS41 KCTP 011610 AAB
TAFJST
TAF AMD
KJST 011610Z 0116/0212 20008KT 1 1/2SM -SN BR BKN006 OVC014
     FM011630 20006KT 1/2SM -SN FG OVC006
     FM012000 20009KT 1/2SM -FZRASN FG OVC003
     FM020300 26008KT 1 1/2SM -SHSN BR OVC003
     FM020600 29010G17KT 3SM -SHSN BR OVC006=



000
FTUS41 KCTP 011610 AAD
TAFUNV
TAF AMD
KUNV 011610Z 0116/0212 21010KT 1SM -SN BR SCT011 OVC020
     FM011700 19008KT 1/2SM -SN FG BKN009 OVC015
     FM012200 21006KT 3/4SM -SN BR OVC007
     FM020300 21006KT 1 1/2SM -SHSN BR OVC012
     FM020600 29010KT 5SM -SHSN BR OVC020=



000
FTUS41 KCTP 011610 AAD
TAFUNV
TAF AMD
KUNV 011610Z 0116/0212 21010KT 1SM -SN BR SCT011 OVC020
     FM011700 19008KT 1/2SM -SN FG BKN009 OVC015
     FM012200 21006KT 3/4SM -SN BR OVC007
     FM020300 21006KT 1 1/2SM -SHSN BR OVC012
     FM020600 29010KT 5SM -SHSN BR OVC020=



000
FTUS41 KCTP 011610 AAB
TAFBFD
TAF AMD
KBFD 011610Z 0116/0212 18005KT 1SM -SN BR SCT010 OVC013
     FM011630 16004KT 3/4SM -SN BR OVC008
     FM011800 22006KT 1/2SM -SN FG OVC003
     FM020100 26008KT 1 1/2SM -SHSN BR OVC003
     FM020600 29010KT 5SM -SHSN BR OVC006=



000
FTUS41 KCTP 011610 AAD
TAFAOO
TAF AMD
KAOO 011610Z 0116/0212 22007KT 1SM -SN BR BKN021 OVC025
     FM011700 17006KT 1/2SM -SN FG BKN007 OVC015
     FM012200 21006KT 3/4SM -SN BR OVC007
     FM020300 21006KT 1 1/2SM -SHSN BR OVC012
     FM020600 29010KT 5SM -SHSN BR OVC020=



000
FTUS41 KCTP 011610 AAD
TAFUNV
TAF AMD
KUNV 011610Z 0116/0212 21010KT 1SM -SN BR SCT011 OVC020
     FM011700 19008KT 1/2SM -SN FG BKN009 OVC015
     FM012200 21006KT 3/4SM -SN BR OVC007
     FM020300 21006KT 1 1/2SM -SHSN BR OVC012
     FM020600 29010KT 5SM -SHSN BR OVC020=



000
FTUS41 KCTP 011610 AAD
TAFAOO
TAF AMD
KAOO 011610Z 0116/0212 22007KT 1SM -SN BR BKN021 OVC025
     FM011700 17006KT 1/2SM -SN FG BKN007 OVC015
     FM012200 21006KT 3/4SM -SN BR OVC007
     FM020300 21006KT 1 1/2SM -SHSN BR OVC012
     FM020600 29010KT 5SM -SHSN BR OVC020=



000
FTUS41 KCTP 011610 AAB
TAFJST
TAF AMD
KJST 011610Z 0116/0212 20008KT 1 1/2SM -SN BR BKN006 OVC014
     FM011630 20006KT 1/2SM -SN FG OVC006
     FM012000 20009KT 1/2SM -FZRASN FG OVC003
     FM020300 26008KT 1 1/2SM -SHSN BR OVC003
     FM020600 29010G17KT 3SM -SHSN BR OVC006=



000
FTUS41 KCTP 011610 AAC
TAFIPT
TAF AMD
KIPT 011610Z 0116/0212 05005KT 1 1/2SM -SN OVC017
     FM011630 05006KT 1SM -SN OVC013
     FM012200 09006KT 3/4SM -SN BR OVC008
     FM020300 21006KT 1 1/2SM -SHSN BR OVC012
     FM020600 29008KT 5SM -SHSN BR OVC020=



000
FTUS41 KCTP 011610 AAB
TAFBFD
TAF AMD
KBFD 011610Z 0116/0212 18005KT 1SM -SN BR SCT010 OVC013
     FM011630 16004KT 3/4SM -SN BR OVC008
     FM011800 22006KT 1/2SM -SN FG OVC003
     FM020100 26008KT 1 1/2SM -SHSN BR OVC003
     FM020600 29010KT 5SM -SHSN BR OVC006=



000
FTUS41 KCTP 011610 AAC
TAFMDT
TAF AMD
KMDT 011610Z 0116/0212 16006KT 3/4SM -SN BKN019 OVC028
     FM011700 15004KT 1 1/2SM -SN BR OVC018
     FM011900 15005KT 1SM -SNPL OVC013
     FM012100 15004KT 3/4SM -FZRASN BR OVC008
     FM020500 21006KT 1 1/2SM -SHSN BR OVC012
     FM020800 29008KT 5SM -SHSN BR OVC020=



000
FTUS41 KCTP 011610 AAD
TAFAOO
TAF AMD
KAOO 011610Z 0116/0212 22007KT 1SM -SN BR BKN021 OVC025
     FM011700 17006KT 1/2SM -SN FG BKN007 OVC015
     FM012200 21006KT 3/4SM -SN BR OVC007
     FM020300 21006KT 1 1/2SM -SHSN BR OVC012
     FM020600 29010KT 5SM -SHSN BR OVC020=



000
FTUS41 KCTP 011610 AAC
TAFMDT
TAF AMD
KMDT 011610Z 0116/0212 16006KT 3/4SM -SN BKN019 OVC028
     FM011700 15004KT 1 1/2SM -SN BR OVC018
     FM011900 15005KT 1SM -SNPL OVC013
     FM012100 15004KT 3/4SM -FZRASN BR OVC008
     FM020500 21006KT 1 1/2SM -SHSN BR OVC012
     FM020800 29008KT 5SM -SHSN BR OVC020=



000
FTUS41 KCTP 011610 AAC
TAFIPT
TAF AMD
KIPT 011610Z 0116/0212 05005KT 1 1/2SM -SN OVC017
     FM011630 05006KT 1SM -SN OVC013
     FM012200 09006KT 3/4SM -SN BR OVC008
     FM020300 21006KT 1 1/2SM -SHSN BR OVC012
     FM020600 29008KT 5SM -SHSN BR OVC020=



000
FTUS41 KCTP 011610 AAB
TAFBFD
TAF AMD
KBFD 011610Z 0116/0212 18005KT 1SM -SN BR SCT010 OVC013
     FM011630 16004KT 3/4SM -SN BR OVC008
     FM011800 22006KT 1/2SM -SN FG OVC003
     FM020100 26008KT 1 1/2SM -SHSN BR OVC003
     FM020600 29010KT 5SM -SHSN BR OVC006=



000
FTUS41 KCTP 011610 AAC
TAFMDT
TAF AMD
KMDT 011610Z 0116/0212 16006KT 3/4SM -SN BKN019 OVC028
     FM011700 15004KT 1 1/2SM -SN BR OVC018
     FM011900 15005KT 1SM -SNPL OVC013
     FM012100 15004KT 3/4SM -FZRASN BR OVC008
     FM020500 21006KT 1 1/2SM -SHSN BR OVC012
     FM020800 29008KT 5SM -SHSN BR OVC020=



000
FTUS41 KCTP 011610 AAC
TAFIPT
TAF AMD
KIPT 011610Z 0116/0212 05005KT 1 1/2SM -SN OVC017
     FM011630 05006KT 1SM -SN OVC013
     FM012200 09006KT 3/4SM -SN BR OVC008
     FM020300 21006KT 1 1/2SM -SHSN BR OVC012
     FM020600 29008KT 5SM -SHSN BR OVC020=



000
FTUS41 KCTP 011610 AAB
TAFJST
TAF AMD
KJST 011610Z 0116/0212 20008KT 1 1/2SM -SN BR BKN006 OVC014
     FM011630 20006KT 1/2SM -SN FG OVC006
     FM012000 20009KT 1/2SM -FZRASN FG OVC003
     FM020300 26008KT 1 1/2SM -SHSN BR OVC003
     FM020600 29010G17KT 3SM -SHSN BR OVC006=



000
FTUS41 KCTP 011610 AAB
TAFBFD
TAF AMD
KBFD 011610Z 0116/0212 18005KT 1SM -SN BR SCT010 OVC013
     FM011630 16004KT 3/4SM -SN BR OVC008
     FM011800 22006KT 1/2SM -SN FG OVC003
     FM020100 26008KT 1 1/2SM -SHSN BR OVC003
     FM020600 29010KT 5SM -SHSN BR OVC006=



000
FTUS41 KCTP 011610 AAC
TAFIPT
TAF AMD
KIPT 011610Z 0116/0212 05005KT 1 1/2SM -SN OVC017
     FM011630 05006KT 1SM -SN OVC013
     FM012200 09006KT 3/4SM -SN BR OVC008
     FM020300 21006KT 1 1/2SM -SHSN BR OVC012
     FM020600 29008KT 5SM -SHSN BR OVC020=



000
FTUS41 KCTP 011610 AAC
TAFMDT
TAF AMD
KMDT 011610Z 0116/0212 16006KT 3/4SM -SN BKN019 OVC028
     FM011700 15004KT 1 1/2SM -SN BR OVC018
     FM011900 15005KT 1SM -SNPL OVC013
     FM012100 15004KT 3/4SM -FZRASN BR OVC008
     FM020500 21006KT 1 1/2SM -SHSN BR OVC012
     FM020800 29008KT 5SM -SHSN BR OVC020=



000
FTUS41 KCTP 011529 AAB
TAFIPT
TAF AMD
KIPT 011529Z 0115/0212 06007KT 2SM -SN BKN016 OVC025
     FM011630 05006KT 1SM -SN OVC013
     FM012200 09006KT 3/4SM -SN BR OVC008
     FM020300 21006KT 1 1/2SM -SHSN BR OVC012
     FM020600 29008KT 5SM -SHSN BR OVC020=



000
FTUS41 KCTP 011529 AAB
TAFIPT
TAF AMD
KIPT 011529Z 0115/0212 06007KT 2SM -SN BKN016 OVC025
     FM011630 05006KT 1SM -SN OVC013
     FM012200 09006KT 3/4SM -SN BR OVC008
     FM020300 21006KT 1 1/2SM -SHSN BR OVC012
     FM020600 29008KT 5SM -SHSN BR OVC020=



000
FTUS41 KCTP 011529 AAB
TAFIPT
TAF AMD
KIPT 011529Z 0115/0212 06007KT 2SM -SN BKN016 OVC025
     FM011630 05006KT 1SM -SN OVC013
     FM012200 09006KT 3/4SM -SN BR OVC008
     FM020300 21006KT 1 1/2SM -SHSN BR OVC012
     FM020600 29008KT 5SM -SHSN BR OVC020=



000
FTUS41 KCTP 011529 AAB
TAFIPT
TAF AMD
KIPT 011529Z 0115/0212 06007KT 2SM -SN BKN016 OVC025
     FM011630 05006KT 1SM -SN OVC013
     FM012200 09006KT 3/4SM -SN BR OVC008
     FM020300 21006KT 1 1/2SM -SHSN BR OVC012
     FM020600 29008KT 5SM -SHSN BR OVC020=



000
FTUS41 KCTP 011526 AAC
TAFUNV
TAF AMD
KUNV 011526Z 0115/0212 20009KT 1SM -SN BR SCT009 OVC020
     FM011700 19008KT 1/2SM -SN FG BKN009 OVC015
     FM012200 21006KT 3/4SM -SN BR OVC007
     FM020300 21006KT 1 1/2SM -SHSN BR OVC012
     FM020600 29010KT 5SM -SHSN BR OVC020=



000
FTUS41 KCTP 011526 AAC
TAFUNV
TAF AMD
KUNV 011526Z 0115/0212 20009KT 1SM -SN BR SCT009 OVC020
     FM011700 19008KT 1/2SM -SN FG BKN009 OVC015
     FM012200 21006KT 3/4SM -SN BR OVC007
     FM020300 21006KT 1 1/2SM -SHSN BR OVC012
     FM020600 29010KT 5SM -SHSN BR OVC020=



000
FTUS41 KCTP 011524 AAA
TAFJST
TAF AMD
KJST 011524Z 0115/0212 19007KT 1SM -SN BR OVC012
     FM011630 20006KT 1/2SM -SN FG OVC006
     FM012000 20009KT 1/2SM -FZRASN FG OVC003
     FM020300 26008KT 1 1/2SM -SHSN BR OVC003
     FM020600 29010G17KT 3SM -SHSN BR OVC006=



000
FTUS41 KCTP 011524 AAA
TAFJST
TAF AMD
KJST 011524Z 0115/0212 19007KT 1SM -SN BR OVC012
     FM011630 20006KT 1/2SM -SN FG OVC006
     FM012000 20009KT 1/2SM -FZRASN FG OVC003
     FM020300 26008KT 1 1/2SM -SHSN BR OVC003
     FM020600 29010G17KT 3SM -SHSN BR OVC006=



000
FTUS41 KCTP 011523 AAA
TAFBFD
TAF AMD
KBFD 011523Z 0115/0212 15005KT 1SM -SN OVC011
     FM011630 16004KT 3/4SM -SN BR OVC008
     FM011800 22006KT 1/2SM -SN FG OVC003
     FM020100 26008KT 1 1/2SM -SHSN BR OVC003
     FM020600 29010KT 5SM -SHSN BR OVC006=



000
FTUS41 KCTP 011522 AAB
TAFMDT
TAF AMD
KMDT 011522Z 0115/0212 14005KT 2SM -SN BR BKN023 OVC040
     FM011700 15004KT 1 1/2SM -SN BR OVC018
     FM011900 15005KT 1SM -SNPL OVC013
     FM012100 15004KT 3/4SM -FZRASN BR OVC008
     FM020500 21006KT 1 1/2SM -SHSN BR OVC012
     FM020800 29008KT 5SM -SHSN BR OVC020=



000
FTUS41 KCTP 011522 AAB
TAFMDT
TAF AMD
KMDT 011522Z 0115/0212 14005KT 2SM -SN BR BKN023 OVC040
     FM011700 15004KT 1 1/2SM -SN BR OVC018
     FM011900 15005KT 1SM -SNPL OVC013
     FM012100 15004KT 3/4SM -FZRASN BR OVC008
     FM020500 21006KT 1 1/2SM -SHSN BR OVC012
     FM020800 29008KT 5SM -SHSN BR OVC020=



000
FTUS41 KCTP 011510 AAC
TAFAOO
TAF AMD
KAOO 011510Z 0115/0212 18006KT 1SM -SN SCT015 OVC023
     FM011700 17006KT 1/2SM -SN FG BKN007 OVC015
     FM012200 21006KT 3/4SM -SN BR OVC007
     FM020300 21006KT 1 1/2SM -SHSN BR OVC012
     FM020600 29010KT 5SM -SHSN BR OVC020=



000
FTUS41 KCTP 011510 AAC
TAFAOO
TAF AMD
KAOO 011510Z 0115/0212 18006KT 1SM -SN SCT015 OVC023
     FM011700 17006KT 1/2SM -SN FG BKN007 OVC015
     FM012200 21006KT 3/4SM -SN BR OVC007
     FM020300 21006KT 1 1/2SM -SHSN BR OVC012
     FM020600 29010KT 5SM -SHSN BR OVC020=



000
FTUS41 KCTP 011415 AAB
TAFAOO
TAF AMD
KAOO 011415Z 0114/0212 18006KT 3SM -SN BKN017 OVC022
     FM011600 17006KT 1/2SM -SN FG BKN007 OVC015
     FM012200 21006KT 3/4SM -SN BR OVC007
     FM020300 21006KT 1 1/2SM -SHSN BR OVC012
     FM020600 29010KT 5SM -SHSN BR OVC020=



000
FTUS41 KCTP 011415 AAB
TAFAOO
TAF AMD
KAOO 011415Z 0114/0212 18006KT 3SM -SN BKN017 OVC022
     FM011600 17006KT 1/2SM -SN FG BKN007 OVC015
     FM012200 21006KT 3/4SM -SN BR OVC007
     FM020300 21006KT 1 1/2SM -SHSN BR OVC012
     FM020600 29010KT 5SM -SHSN BR OVC020=



000
FTUS41 KCTP 011415 AAB
TAFAOO
TAF AMD
KAOO 011415Z 0114/0212 18006KT 3SM -SN BKN017 OVC022
     FM011600 17006KT 1/2SM -SN FG BKN007 OVC015
     FM012200 21006KT 3/4SM -SN BR OVC007
     FM020300 21006KT 1 1/2SM -SHSN BR OVC012
     FM020600 29010KT 5SM -SHSN BR OVC020=



000
FTUS41 KCTP 011415 AAB
TAFAOO
TAF AMD
KAOO 011415Z 0114/0212 18006KT 3SM -SN BKN017 OVC022
     FM011600 17006KT 1/2SM -SN FG BKN007 OVC015
     FM012200 21006KT 3/4SM -SN BR OVC007
     FM020300 21006KT 1 1/2SM -SHSN BR OVC012
     FM020600 29010KT 5SM -SHSN BR OVC020=



000
FTUS41 KCTP 011415 AAB
TAFUNV
TAF AMD
KUNV 011415Z 0114/0212 00000KT 2SM -SN BR OVC020
     FM011500 18004KT 1SM -SN BR OVC015
     FM011700 17003KT 1/2SM -SN FG OVC007
     FM012200 21006KT 3/4SM -SN BR OVC007
     FM020300 21006KT 1 1/2SM -SHSN BR OVC012
     FM020600 29010KT 5SM -SHSN BR OVC020=



000
FTUS41 KCTP 011415 AAB
TAFUNV
TAF AMD
KUNV 011415Z 0114/0212 00000KT 2SM -SN BR OVC020
     FM011500 18004KT 1SM -SN BR OVC015
     FM011700 17003KT 1/2SM -SN FG OVC007
     FM012200 21006KT 3/4SM -SN BR OVC007
     FM020300 21006KT 1 1/2SM -SHSN BR OVC012
     FM020600 29010KT 5SM -SHSN BR OVC020=



000
FTUS41 KCTP 011413 AAA
TAFIPT
TAF AMD
KIPT 011413Z 0114/0212 06007KT 2SM -SN BKN016 OVC035
     FM011500 07006KT 1SM -SN OVC015
     FM011700 09006KT 1/2SM -SN FG OVC007
     FM012200 09006KT 3/4SM -SN BR OVC007
     FM020300 21006KT 1 1/2SM -SHSN BR OVC012
     FM020600 29008KT 5SM -SHSN BR OVC020=



000
FTUS41 KCTP 011413 AAA
TAFIPT
TAF AMD
KIPT 011413Z 0114/0212 06007KT 2SM -SN BKN016 OVC035
     FM011500 07006KT 1SM -SN OVC015
     FM011700 09006KT 1/2SM -SN FG OVC007
     FM012200 09006KT 3/4SM -SN BR OVC007
     FM020300 21006KT 1 1/2SM -SHSN BR OVC012
     FM020600 29008KT 5SM -SHSN BR OVC020=



000
FTUS41 KCTP 011413 AAA
TAFIPT
TAF AMD
KIPT 011413Z 0114/0212 06007KT 2SM -SN BKN016 OVC035
     FM011500 07006KT 1SM -SN OVC015
     FM011700 09006KT 1/2SM -SN FG OVC007
     FM012200 09006KT 3/4SM -SN BR OVC007
     FM020300 21006KT 1 1/2SM -SHSN BR OVC012
     FM020600 29008KT 5SM -SHSN BR OVC020=



000
FTUS41 KCTP 011413 AAA
TAFIPT
TAF AMD
KIPT 011413Z 0114/0212 06007KT 2SM -SN BKN016 OVC035
     FM011500 07006KT 1SM -SN OVC015
     FM011700 09006KT 1/2SM -SN FG OVC007
     FM012200 09006KT 3/4SM -SN BR OVC007
     FM020300 21006KT 1 1/2SM -SHSN BR OVC012
     FM020600 29008KT 5SM -SHSN BR OVC020=



000
FTUS41 KCTP 011310 AAA
TAFUNV
TAF AMD
KUNV 011310Z 0113/0212 00000KT 2SM -SN BR OVC020
     FM011400 18004KT 1SM -SN BR OVC015
     FM011500 17003KT 1/2SM -SN FG OVC007
     FM012200 21006KT 3/4SM -SN BR OVC007
     FM020300 21006KT 1 1/2SM -SHSN BR OVC012
     FM020600 29010KT 5SM -SHSN BR OVC020=



000
FTUS41 KCTP 011310 AAA
TAFUNV
TAF AMD
KUNV 011310Z 0113/0212 00000KT 2SM -SN BR OVC020
     FM011400 18004KT 1SM -SN BR OVC015
     FM011500 17003KT 1/2SM -SN FG OVC007
     FM012200 21006KT 3/4SM -SN BR OVC007
     FM020300 21006KT 1 1/2SM -SHSN BR OVC012
     FM020600 29010KT 5SM -SHSN BR OVC020=



000
FTUS41 KCTP 011310 AAA
TAFMDT
TAF AMD
KMDT 011310Z 0113/0212 14004KT 1SM -SN BR OVC018
     FM011600 15004KT 1/2SM SN FG OVC008
     FM012100 15004KT 3/4SM -FZRASN BR OVC008
     FM020500 21006KT 1 1/2SM -SHSN BR OVC012
     FM020800 29008KT 5SM -SHSN BR OVC020=



000
FTUS41 KCTP 011310 AAA
TAFUNV
TAF AMD
KUNV 011310Z 0113/0212 00000KT 2SM -SN BR OVC020
     FM011400 18004KT 1SM -SN BR OVC015
     FM011500 17003KT 1/2SM -SN FG OVC007
     FM012200 21006KT 3/4SM -SN BR OVC007
     FM020300 21006KT 1 1/2SM -SHSN BR OVC012
     FM020600 29010KT 5SM -SHSN BR OVC020=



000
FTUS41 KCTP 011310 AAA
TAFMDT
TAF AMD
KMDT 011310Z 0113/0212 14004KT 1SM -SN BR OVC018
     FM011600 15004KT 1/2SM SN FG OVC008
     FM012100 15004KT 3/4SM -FZRASN BR OVC008
     FM020500 21006KT 1 1/2SM -SHSN BR OVC012
     FM020800 29008KT 5SM -SHSN BR OVC020=



000
FTUS41 KCTP 011310 AAA
TAFMDT
TAF AMD
KMDT 011310Z 0113/0212 14004KT 1SM -SN BR OVC018
     FM011600 15004KT 1/2SM SN FG OVC008
     FM012100 15004KT 3/4SM -FZRASN BR OVC008
     FM020500 21006KT 1 1/2SM -SHSN BR OVC012
     FM020800 29008KT 5SM -SHSN BR OVC020=



000
FTUS41 KCTP 011310 AAA
TAFMDT
TAF AMD
KMDT 011310Z 0113/0212 14004KT 1SM -SN BR OVC018
     FM011600 15004KT 1/2SM SN FG OVC008
     FM012100 15004KT 3/4SM -FZRASN BR OVC008
     FM020500 21006KT 1 1/2SM -SHSN BR OVC012
     FM020800 29008KT 5SM -SHSN BR OVC020=



000
FTUS41 KCTP 011309 AAA
TAFAOO
TAF AMD
KAOO 011309Z 0113/0212 18006KT 1 1/2SM -SN SCT017 OVC022
     FM011600 17003KT 1/2SM -SN FG OVC007
     FM012200 21006KT 3/4SM -SN BR OVC007
     FM020300 21006KT 1 1/2SM -SHSN BR OVC012
     FM020600 29010KT 5SM -SHSN BR OVC020=



000
FTUS41 KCTP 011309 AAA
TAFAOO
TAF AMD
KAOO 011309Z 0113/0212 18006KT 1 1/2SM -SN SCT017 OVC022
     FM011600 17003KT 1/2SM -SN FG OVC007
     FM012200 21006KT 3/4SM -SN BR OVC007
     FM020300 21006KT 1 1/2SM -SHSN BR OVC012
     FM020600 29010KT 5SM -SHSN BR OVC020=



000
FTUS41 KCTP 011309 AAA
TAFAOO
TAF AMD
KAOO 011309Z 0113/0212 18006KT 1 1/2SM -SN SCT017 OVC022
     FM011600 17003KT 1/2SM -SN FG OVC007
     FM012200 21006KT 3/4SM -SN BR OVC007
     FM020300 21006KT 1 1/2SM -SHSN BR OVC012
     FM020600 29010KT 5SM -SHSN BR OVC020=



000
FTUS41 KCTP 011140
TAFJST
TAF
KJST 011140Z 0112/0212 19006KT 1SM -SN OVC020
     FM011330 19006KT 3/4SM -SN BR OVC012
     FM011600 20006KT 1/2SM -SN FG OVC003
     FM012000 20009KT 1/2SM -FZRASN FG OVC003
     FM020300 26008KT 1 1/2SM -SHSN BR OVC003
     FM020600 29010G17KT 3SM -SHSN BR OVC006=



000
FTUS41 KCTP 011140
TAFMDT
TAF
KMDT 011140Z 0112/0212 12004KT P6SM -SHSN OVC040
     FM011300 13004KT 2SM -SN BR OVC025
     FM011600 15004KT 1/2SM SN FG OVC008
     FM012100 15004KT 3/4SM -FZRASN BR OVC008
     FM020500 21006KT 1 1/2SM -SHSN BR OVC012
     FM020800 29008KT 5SM -SHSN BR OVC020=



000
FTUS41 KCTP 011140
TAFUNV
TAF
KUNV 011140Z 0112/0212 00000KT 2SM -SN BKN018 OVC025
     FM011300 18004KT 1SM -SN OVC015
     FM011400 17003KT 1/2SM -SN FG OVC007
     FM012200 21006KT 3/4SM -SN BR OVC007
     FM020300 21006KT 1 1/2SM -SHSN BR OVC012
     FM020600 29010KT 5SM -SHSN BR OVC020=



000
FTUS41 KCTP 011140
TAFAOO
TAF
KAOO 011140Z 0112/0212 18004KT 3SM -SN OVC040
     FM011300 18004KT 2SM -SN OVC022
     FM011600 17003KT 1/2SM -SN FG OVC007
     FM012200 21006KT 3/4SM -SN BR OVC007
     FM020300 21006KT 1 1/2SM -SHSN BR OVC012
     FM020600 29010KT 5SM -SHSN BR OVC020=



000
FTUS41 KCTP 011140
TAFBFD
TAF
KBFD 011140Z 0112/0212 16005KT 3/4SM -SN OVC015
     FM011400 16004KT 3/4SM -SN BR OVC007
     FM011800 22006KT 1/2SM -SN FG OVC003
     FM020100 26008KT 1 1/2SM -SHSN BR OVC003
     FM020600 29010KT 5SM -SHSN BR OVC006=



000
FTUS41 KCTP 011140
TAFIPT
TAF
KIPT 011140Z 0112/0212 00000KT 1 1/2SM -SN OVC020
     FM011300 09004KT 1SM -SN OVC015
     FM011400 09003KT 1/2SM -SN FG OVC007
     FM012200 09006KT 3/4SM -SN BR OVC007
     FM020300 21006KT 1 1/2SM -SHSN BR OVC012
     FM020600 29008KT 5SM -SHSN BR OVC020=



000
FTUS41 KCTP 011140
TAFUNV
TAF
KUNV 011140Z 0112/0212 00000KT 2SM -SN BKN018 OVC025
     FM011300 18004KT 1SM -SN OVC015
     FM011400 17003KT 1/2SM -SN FG OVC007
     FM012200 21006KT 3/4SM -SN BR OVC007
     FM020300 21006KT 1 1/2SM -SHSN BR OVC012
     FM020600 29010KT 5SM -SHSN BR OVC020=



000
FTUS41 KCTP 011140
TAFBFD
TAF
KBFD 011140Z 0112/0212 16005KT 3/4SM -SN OVC015
     FM011400 16004KT 3/4SM -SN BR OVC007
     FM011800 22006KT 1/2SM -SN FG OVC003
     FM020100 26008KT 1 1/2SM -SHSN BR OVC003
     FM020600 29010KT 5SM -SHSN BR OVC006=



000
FTUS41 KCTP 011140
TAFIPT
TAF
KIPT 011140Z 0112/0212 00000KT 1 1/2SM -SN OVC020
     FM011300 09004KT 1SM -SN OVC015
     FM011400 09003KT 1/2SM -SN FG OVC007
     FM012200 09006KT 3/4SM -SN BR OVC007
     FM020300 21006KT 1 1/2SM -SHSN BR OVC012
     FM020600 29008KT 5SM -SHSN BR OVC020=



000
FTUS41 KCTP 011140
TAFJST
TAF
KJST 011140Z 0112/0212 19006KT 1SM -SN OVC020
     FM011330 19006KT 3/4SM -SN BR OVC012
     FM011600 20006KT 1/2SM -SN FG OVC003
     FM012000 20009KT 1/2SM -FZRASN FG OVC003
     FM020300 26008KT 1 1/2SM -SHSN BR OVC003
     FM020600 29010G17KT 3SM -SHSN BR OVC006=



000
FTUS41 KCTP 011140
TAFAOO
TAF
KAOO 011140Z 0112/0212 18004KT 3SM -SN OVC040
     FM011300 18004KT 2SM -SN OVC022
     FM011600 17003KT 1/2SM -SN FG OVC007
     FM012200 21006KT 3/4SM -SN BR OVC007
     FM020300 21006KT 1 1/2SM -SHSN BR OVC012
     FM020600 29010KT 5SM -SHSN BR OVC020=



000
FTUS41 KCTP 011140
TAFMDT
TAF
KMDT 011140Z 0112/0212 12004KT P6SM -SHSN OVC040
     FM011300 13004KT 2SM -SN BR OVC025
     FM011600 15004KT 1/2SM SN FG OVC008
     FM012100 15004KT 3/4SM -FZRASN BR OVC008
     FM020500 21006KT 1 1/2SM -SHSN BR OVC012
     FM020800 29008KT 5SM -SHSN BR OVC020=



000
FTUS41 KCTP 010955 AAA
TAFMDT
TAF AMD
KMDT 010955Z 0110/0206 12004KT P6SM -SHSN OVC040
     FM011200 12004KT 5SM -SN BR OVC015
     FM011600 14002KT 1/2SM SN FG OVC008
     FM012100 15004KT 3/4SM -FZRASN BR OVC008=



000
FTUS41 KCTP 010955 AAA
TAFMDT
TAF AMD
KMDT 010955Z 0110/0206 12004KT P6SM -SHSN OVC040
     FM011200 12004KT 5SM -SN BR OVC015
     FM011600 14002KT 1/2SM SN FG OVC008
     FM012100 15004KT 3/4SM -FZRASN BR OVC008=



000
FTUS41 KCTP 010955 AAA
TAFMDT
TAF AMD
KMDT 010955Z 0110/0206 12004KT P6SM -SHSN OVC040
     FM011200 12004KT 5SM -SN BR OVC015
     FM011600 14002KT 1/2SM SN FG OVC008
     FM012100 15004KT 3/4SM -FZRASN BR OVC008=



000
FTUS41 KCTP 010955 AAA
TAFMDT
TAF AMD
KMDT 010955Z 0110/0206 12004KT P6SM -SHSN OVC040
     FM011200 12004KT 5SM -SN BR OVC015
     FM011600 14002KT 1/2SM SN FG OVC008
     FM012100 15004KT 3/4SM -FZRASN BR OVC008=



000
FTUS41 KCTP 010955 AAA
TAFIPT
TAF AMD
KIPT 010955Z 0110/0206 10004KT 3SM -SN OVC025
     FM011400 09004KT 3/4SM -SN BR OVC007
     FM020400 27005KT 2SM -SHSN BR OVC015=



000
FTUS41 KCTP 010955 AAA
TAFIPT
TAF AMD
KIPT 010955Z 0110/0206 10004KT 3SM -SN OVC025
     FM011400 09004KT 3/4SM -SN BR OVC007
     FM020400 27005KT 2SM -SHSN BR OVC015=



000
FTUS41 KCTP 010955 AAA
TAFIPT
TAF AMD
KIPT 010955Z 0110/0206 10004KT 3SM -SN OVC025
     FM011400 09004KT 3/4SM -SN BR OVC007
     FM020400 27005KT 2SM -SHSN BR OVC015=



000
FTUS41 KCTP 010954 AAB
TAFUNV
TAF AMD
KUNV 010954Z 0110/0206 17004KT 2SM -SN OVC025
     FM011300 16003KT 1/2SM -SN FG OVC007
     FM012100 21006KT 3/4SM -SN BR OVC009
     FM020400 21006KT 1SM -SHSN BR OVC010=



000
FTUS41 KCTP 010954 AAB
TAFUNV
TAF AMD
KUNV 010954Z 0110/0206 17004KT 2SM -SN OVC025
     FM011300 16003KT 1/2SM -SN FG OVC007
     FM012100 21006KT 3/4SM -SN BR OVC009
     FM020400 21006KT 1SM -SHSN BR OVC010=



000
FTUS41 KCTP 010954 AAA
TAFAOO
TAF AMD
KAOO 010954Z 0110/0206 17004KT 5SM -SN OVC040
     FM011030 17004KT 2SM -SN OVC025
     FM011300 17003KT 1/2SM -SN FG OVC007
     FM012100 21006KT 3/4SM -SN BR OVC009
     FM020400 21006KT 1SM -SHSN BR OVC010=



000
FTUS41 KCTP 010954 AAB
TAFUNV
TAF AMD
KUNV 010954Z 0110/0206 17004KT 2SM -SN OVC025
     FM011300 16003KT 1/2SM -SN FG OVC007
     FM012100 21006KT 3/4SM -SN BR OVC009
     FM020400 21006KT 1SM -SHSN BR OVC010=



000
FTUS41 KCTP 010954 AAB
TAFUNV
TAF AMD
KUNV 010954Z 0110/0206 17004KT 2SM -SN OVC025
     FM011300 16003KT 1/2SM -SN FG OVC007
     FM012100 21006KT 3/4SM -SN BR OVC009
     FM020400 21006KT 1SM -SHSN BR OVC010=



000
FTUS41 KCTP 010954 AAA
TAFAOO
TAF AMD
KAOO 010954Z 0110/0206 17004KT 5SM -SN OVC040
     FM011030 17004KT 2SM -SN OVC025
     FM011300 17003KT 1/2SM -SN FG OVC007
     FM012100 21006KT 3/4SM -SN BR OVC009
     FM020400 21006KT 1SM -SHSN BR OVC010=



000
FTUS41 KCTP 010954 AAA
TAFAOO
TAF AMD
KAOO 010954Z 0110/0206 17004KT 5SM -SN OVC040
     FM011030 17004KT 2SM -SN OVC025
     FM011300 17003KT 1/2SM -SN FG OVC007
     FM012100 21006KT 3/4SM -SN BR OVC009
     FM020400 21006KT 1SM -SHSN BR OVC010=



000
FTUS41 KCTP 010954 AAA
TAFAOO
TAF AMD
KAOO 010954Z 0110/0206 17004KT 5SM -SN OVC040
     FM011030 17004KT 2SM -SN OVC025
     FM011300 17003KT 1/2SM -SN FG OVC007
     FM012100 21006KT 3/4SM -SN BR OVC009
     FM020400 21006KT 1SM -SHSN BR OVC010=



000
FTUS41 KCTP 010953 AAA
TAFJST
TAF AMD
KJST 010953Z 0110/0206 16007KT 1SM -SN OVC020
     FM011200 18007KT 1/2SM SN FG OVC003
     FM011900 21009KT 1/2SM -FZRASN FG OVC003
     FM020100 25011KT 3/4SM -SN BR OVC003=



000
FTUS41 KCTP 010953 AAA
TAFJST
TAF AMD
KJST 010953Z 0110/0206 16007KT 1SM -SN OVC020
     FM011200 18007KT 1/2SM SN FG OVC003
     FM011900 21009KT 1/2SM -FZRASN FG OVC003
     FM020100 25011KT 3/4SM -SN BR OVC003=



000
FTUS41 KCTP 010953 AAA
TAFJST
TAF AMD
KJST 010953Z 0110/0206 16007KT 1SM -SN OVC020
     FM011200 18007KT 1/2SM SN FG OVC003
     FM011900 21009KT 1/2SM -FZRASN FG OVC003
     FM020100 25011KT 3/4SM -SN BR OVC003=



000
FTUS41 KCTP 010953 AAA
TAFJST
TAF AMD
KJST 010953Z 0110/0206 16007KT 1SM -SN OVC020
     FM011200 18007KT 1/2SM SN FG OVC003
     FM011900 21009KT 1/2SM -FZRASN FG OVC003
     FM020100 25011KT 3/4SM -SN BR OVC003=



000
FTUS41 KCTP 010839 AAA
TAFUNV
TAF AMD
KUNV 010839Z 0109/0206 13004KT 2SM -SN OVC025
     FM011300 16003KT 1/2SM -SN FG OVC007
     FM012100 21006KT 3/4SM -SN BR OVC009
     FM020400 21006KT 1SM -SHSN BR OVC010=



000
FTUS41 KCTP 010838 AAA
TAFBFD
TAF AMD
KBFD 010838Z 0109/0206 14003KT 3/4SM -SN OVC013
     FM011100 16004KT 3/4SM -SN BR OVC003
     FM011800 22006KT 1/2SM -SN FG OVC003
     FM020100 26008KT 3/4SM -SHSN BR OVC006=



000
FTUS41 KCTP 010838 AAA
TAFBFD
TAF AMD
KBFD 010838Z 0109/0206 14003KT 3/4SM -SN OVC013
     FM011100 16004KT 3/4SM -SN BR OVC003
     FM011800 22006KT 1/2SM -SN FG OVC003
     FM020100 26008KT 3/4SM -SHSN BR OVC006=



000
FTUS41 KCTP 010539
TAFUNV
TAF
KUNV 010539Z 0106/0206 13004KT P6SM OVC100
     FM010900 13004KT 2SM -SN OVC025
     FM011300 16003KT 1/2SM -SN FG OVC007
     FM012100 21006KT 3/4SM -SN BR OVC009
     FM020400 21006KT 1SM -SHSN BR OVC010=



000
FTUS41 KCTP 010539
TAFMDT
TAF
KMDT 010539Z 0106/0206 VRB03KT P6SM SKC
     FM010800 12004KT P6SM BKN120
     FM011100 12004KT P6SM OVC040
     FM011400 12004KT 5SM -SN BR OVC015
     FM011600 14002KT 1/2SM SN FG OVC008
     FM012100 15004KT 3/4SM -FZRASN BR OVC008=



000
FTUS41 KCTP 010539
TAFIPT
TAF
KIPT 010539Z 0106/0206 VRB03KT P6SM SKC
     FM010700 10004KT P6SM BKN100
     FM011100 10004KT 3SM -SN OVC025
     FM011400 09004KT 3/4SM -SN BR OVC007
     FM020400 27005KT 2SM -SHSN BR OVC015=



000
FTUS41 KCTP 010539
TAFMDT
TAF
KMDT 010539Z 0106/0206 VRB03KT P6SM SKC
     FM010800 12004KT P6SM BKN120
     FM011100 12004KT P6SM OVC040
     FM011400 12004KT 5SM -SN BR OVC015
     FM011600 14002KT 1/2SM SN FG OVC008
     FM012100 15004KT 3/4SM -FZRASN BR OVC008=



000
FTUS41 KCTP 010539
TAFBFD
TAF
KBFD 010539Z 0106/0206 14003KT P6SM OVC100
     FM010800 15004KT 2SM -SN OVC020
     FM011100 16004KT 3/4SM -SN BR OVC003
     FM011800 22006KT 1/2SM -SN FG OVC003
     FM020100 26008KT 3/4SM -SHSN BR OVC006=



000
FTUS41 KCTP 010539
TAFUNV
TAF
KUNV 010539Z 0106/0206 13004KT P6SM OVC100
     FM010900 13004KT 2SM -SN OVC025
     FM011300 16003KT 1/2SM -SN FG OVC007
     FM012100 21006KT 3/4SM -SN BR OVC009
     FM020400 21006KT 1SM -SHSN BR OVC010=



000
FTUS41 KCTP 010539
TAFIPT
TAF
KIPT 010539Z 0106/0206 VRB03KT P6SM SKC
     FM010700 10004KT P6SM BKN100
     FM011100 10004KT 3SM -SN OVC025
     FM011400 09004KT 3/4SM -SN BR OVC007
     FM020400 27005KT 2SM -SHSN BR OVC015=



000
FTUS41 KCTP 010539
TAFIPT
TAF
KIPT 010539Z 0106/0206 VRB03KT P6SM SKC
     FM010700 10004KT P6SM BKN100
     FM011100 10004KT 3SM -SN OVC025
     FM011400 09004KT 3/4SM -SN BR OVC007
     FM020400 27005KT 2SM -SHSN BR OVC015=



000
FTUS41 KCTP 010539
TAFMDT
TAF
KMDT 010539Z 0106/0206 VRB03KT P6SM SKC
     FM010800 12004KT P6SM BKN120
     FM011100 12004KT P6SM OVC040
     FM011400 12004KT 5SM -SN BR OVC015
     FM011600 14002KT 1/2SM SN FG OVC008
     FM012100 15004KT 3/4SM -FZRASN BR OVC008=



000
FTUS41 KCTP 010539
TAFBFD
TAF
KBFD 010539Z 0106/0206 14003KT P6SM OVC100
     FM010800 15004KT 2SM -SN OVC020
     FM011100 16004KT 3/4SM -SN BR OVC003
     FM011800 22006KT 1/2SM -SN FG OVC003
     FM020100 26008KT 3/4SM -SHSN BR OVC006=



000
FTUS41 KCTP 010539
TAFJST
TAF
KJST 010539Z 0106/0206 15006KT P6SM OVC100
     FM010800 16007KT 2SM -SN OVC020
     FM011200 18007KT 1/2SM SN FG OVC003
     FM011900 21009KT 1/2SM -FZRASN FG OVC003
     FM020100 25011KT 3/4SM -SN BR OVC003=



000
FTUS41 KCTP 010539
TAFAOO
TAF
KAOO 010539Z 0106/0206 16003KT P6SM SKC
     FM010600 13004KT P6SM OVC100
     FM010900 13004KT 2SM -SN OVC025
     FM011300 17003KT 1/2SM -SN FG OVC007
     FM012100 21006KT 3/4SM -SN BR OVC009
     FM020400 21006KT 1SM -SHSN BR OVC010=



000
FTUS41 KCTP 010539
TAFAOO
TAF
KAOO 010539Z 0106/0206 16003KT P6SM SKC
     FM010600 13004KT P6SM OVC100
     FM010900 13004KT 2SM -SN OVC025
     FM011300 17003KT 1/2SM -SN FG OVC007
     FM012100 21006KT 3/4SM -SN BR OVC009
     FM020400 21006KT 1SM -SHSN BR OVC010=



000
FTUS41 KCTP 010539
TAFBFD
TAF
KBFD 010539Z 0106/0206 14003KT P6SM OVC100
     FM010800 15004KT 2SM -SN OVC020
     FM011100 16004KT 3/4SM -SN BR OVC003
     FM011800 22006KT 1/2SM -SN FG OVC003
     FM020100 26008KT 3/4SM -SHSN BR OVC006=



000
FTUS41 KCTP 010539
TAFAOO
TAF
KAOO 010539Z 0106/0206 16003KT P6SM SKC
     FM010600 13004KT P6SM OVC100
     FM010900 13004KT 2SM -SN OVC025
     FM011300 17003KT 1/2SM -SN FG OVC007
     FM012100 21006KT 3/4SM -SN BR OVC009
     FM020400 21006KT 1SM -SHSN BR OVC010=



000
FTUS41 KCTP 010539
TAFUNV
TAF
KUNV 010539Z 0106/0206 13004KT P6SM OVC100
     FM010900 13004KT 2SM -SN OVC025
     FM011300 16003KT 1/2SM -SN FG OVC007
     FM012100 21006KT 3/4SM -SN BR OVC009
     FM020400 21006KT 1SM -SHSN BR OVC010=



000
FTUS41 KCTP 010539
TAFJST
TAF
KJST 010539Z 0106/0206 15006KT P6SM OVC100
     FM010800 16007KT 2SM -SN OVC020
     FM011200 18007KT 1/2SM SN FG OVC003
     FM011900 21009KT 1/2SM -FZRASN FG OVC003
     FM020100 25011KT 3/4SM -SN BR OVC003=



000
FTUS41 KCTP 010539
TAFMDT
TAF
KMDT 010539Z 0106/0206 VRB03KT P6SM SKC
     FM010800 12004KT P6SM BKN120
     FM011100 12004KT P6SM OVC040
     FM011400 12004KT 5SM -SN BR OVC015
     FM011600 14002KT 1/2SM SN FG OVC008
     FM012100 15004KT 3/4SM -FZRASN BR OVC008=



000
FTUS41 KCTP 010539
TAFIPT
TAF
KIPT 010539Z 0106/0206 VRB03KT P6SM SKC
     FM010700 10004KT P6SM BKN100
     FM011100 10004KT 3SM -SN OVC025
     FM011400 09004KT 3/4SM -SN BR OVC007
     FM020400 27005KT 2SM -SHSN BR OVC015=



000
FTUS41 KCTP 010539
TAFBFD
TAF
KBFD 010539Z 0106/0206 14003KT P6SM OVC100
     FM010800 15004KT 2SM -SN OVC020
     FM011100 16004KT 3/4SM -SN BR OVC003
     FM011800 22006KT 1/2SM -SN FG OVC003
     FM020100 26008KT 3/4SM -SHSN BR OVC006=



000
FTUS41 KCTP 010539
TAFJST
TAF
KJST 010539Z 0106/0206 15006KT P6SM OVC100
     FM010800 16007KT 2SM -SN OVC020
     FM011200 18007KT 1/2SM SN FG OVC003
     FM011900 21009KT 1/2SM -FZRASN FG OVC003
     FM020100 25011KT 3/4SM -SN BR OVC003=



000
FTUS41 KCTP 010539
TAFUNV
TAF
KUNV 010539Z 0106/0206 13004KT P6SM OVC100
     FM010900 13004KT 2SM -SN OVC025
     FM011300 16003KT 1/2SM -SN FG OVC007
     FM012100 21006KT 3/4SM -SN BR OVC009
     FM020400 21006KT 1SM -SHSN BR OVC010=



000
FTUS41 KCTP 010539
TAFAOO
TAF
KAOO 010539Z 0106/0206 16003KT P6SM SKC
     FM010600 13004KT P6SM OVC100
     FM010900 13004KT 2SM -SN OVC025
     FM011300 17003KT 1/2SM -SN FG OVC007
     FM012100 21006KT 3/4SM -SN BR OVC009
     FM020400 21006KT 1SM -SHSN BR OVC010=



000
FTUS41 KCTP 010401 AAA
TAFBFD
TAF AMD
KBFD 010401Z 0104/0124 14003KT P6SM SKC
     FM010600 15004KT P6SM OVC100
     FM010800 15004KT 2SM -SN OVC010
     FM011100 16004KT 3/4SM -SN BR OVC003
     FM011800 22006KT 1/2SM SN FG OVC003=



000
FTUS41 KCTP 010401 AAA
TAFBFD
TAF AMD
KBFD 010401Z 0104/0124 14003KT P6SM SKC
     FM010600 15004KT P6SM OVC100
     FM010800 15004KT 2SM -SN OVC010
     FM011100 16004KT 3/4SM -SN BR OVC003
     FM011800 22006KT 1/2SM SN FG OVC003=



000
FTUS41 KCTP 010319 CCA
TAFAOO
TAF COR
KAOO 010319Z 0103/0124 15003KT P6SM SKC
     FM010600 13004KT P6SM OVC100
     FM010900 13004KT 2SM -SN OVC020
     FM011300 16003KT 1/2SM SN FG OVC007
     FM012100 21006KT 3/4SM -SN BR OVC009=



000
FTUS41 KCTP 010319 CCA
TAFAOO
TAF COR
KAOO 010319Z 0103/0124 15003KT P6SM SKC
     FM010600 13004KT P6SM OVC100
     FM010900 13004KT 2SM -SN OVC020
     FM011300 16003KT 1/2SM SN FG OVC007
     FM012100 21006KT 3/4SM -SN BR OVC009=



000
FTUS41 KCTP 010319 AAA
TAFMDT
TAF AMD
KMDT 010319Z 0103/0124 VRB03KT P6SM SKC
     FM010800 12004KT P6SM BKN120
     FM011100 12004KT P6SM OVC040
     FM011400 12004KT 5SM -SN BR OVC015
     FM011600 14002KT 1/2SM SN FG OVC008
     FM012100 15004KT 3/4SM -FZRASN BR OVC008=



000
FTUS41 KCTP 010319 AAA
TAFMDT
TAF AMD
KMDT 010319Z 0103/0124 VRB03KT P6SM SKC
     FM010800 12004KT P6SM BKN120
     FM011100 12004KT P6SM OVC040
     FM011400 12004KT 5SM -SN BR OVC015
     FM011600 14002KT 1/2SM SN FG OVC008
     FM012100 15004KT 3/4SM -FZRASN BR OVC008=



000
FTUS41 KCTP 010319 AAA
TAFMDT
TAF AMD
KMDT 010319Z 0103/0124 VRB03KT P6SM SKC
     FM010800 12004KT P6SM BKN120
     FM011100 12004KT P6SM OVC040
     FM011400 12004KT 5SM -SN BR OVC015
     FM011600 14002KT 1/2SM SN FG OVC008
     FM012100 15004KT 3/4SM -FZRASN BR OVC008=



000
FTUS41 KCTP 010318 AAA
TAFIPT
TAF AMD
KIPT 010318Z 0103/0124 VRB03KT P6SM SKC
     FM010600 10004KT P6SM BKN100
     FM011100 10004KT 3SM -SN OVC025
     FM011400 09004KT 3/4SM -SN BR OVC007=



000
FTUS41 KCTP 010318 AAA
TAFIPT
TAF AMD
KIPT 010318Z 0103/0124 VRB03KT P6SM SKC
     FM010600 10004KT P6SM BKN100
     FM011100 10004KT 3SM -SN OVC025
     FM011400 09004KT 3/4SM -SN BR OVC007=



000
FTUS41 KCTP 010318 AAA
TAFUNV
TAF AMD
KUNV 010318Z 0103/0124 15003KT P6SM SKC
     FM010600 13004KT P6SM OVC100
     FM010900 13004KT 2SM -SN OVC025
     FM011300 16003KT 1/2SM SN FG OVC007
     FM012100 21006KT 3/4SM -SN BR OVC009=



000
FTUS41 KCTP 010318 AAA
TAFUNV
TAF AMD
KUNV 010318Z 0103/0124 15003KT P6SM SKC
     FM010600 13004KT P6SM OVC100
     FM010900 13004KT 2SM -SN OVC025
     FM011300 16003KT 1/2SM SN FG OVC007
     FM012100 21006KT 3/4SM -SN BR OVC009=



000
FTUS41 KCTP 010318 AAA
TAFIPT
TAF AMD
KIPT 010318Z 0103/0124 VRB03KT P6SM SKC
     FM010600 10004KT P6SM BKN100
     FM011100 10004KT 3SM -SN OVC025
     FM011400 09004KT 3/4SM -SN BR OVC007=



000
FTUS41 KCTP 010318 AAA
TAFAOO
TAF AMD
KAOO 010318Z 0103/0124 15003KT P6SM SKC
     FM010400 13004KT P6SM OVC100
     FM010900 13004KT 2SM -SN OVC020
     FM011300 16003KT 1/2SM SN FG OVC007
     FM012100 21006KT 3/4SM -SN BR OVC009=



000
FTUS41 KCTP 010318 AAA
TAFAOO
TAF AMD
KAOO 010318Z 0103/0124 15003KT P6SM SKC
     FM010400 13004KT P6SM OVC100
     FM010900 13004KT 2SM -SN OVC020
     FM011300 16003KT 1/2SM SN FG OVC007
     FM012100 21006KT 3/4SM -SN BR OVC009=



000
FTUS41 KCTP 010318 AAA
TAFAOO
TAF AMD
KAOO 010318Z 0103/0124 15003KT P6SM SKC
     FM010400 13004KT P6SM OVC100
     FM010900 13004KT 2SM -SN OVC020
     FM011300 16003KT 1/2SM SN FG OVC007
     FM012100 21006KT 3/4SM -SN BR OVC009=



000
FTUS41 KCTP 010318 AAA
TAFUNV
TAF AMD
KUNV 010318Z 0103/0124 15003KT P6SM SKC
     FM010600 13004KT P6SM OVC100
     FM010900 13004KT 2SM -SN OVC025
     FM011300 16003KT 1/2SM SN FG OVC007
     FM012100 21006KT 3/4SM -SN BR OVC009=



000
FTUS41 KCTP 010318 AAA
TAFAOO
TAF AMD
KAOO 010318Z 0103/0124 15003KT P6SM SKC
     FM010400 13004KT P6SM OVC100
     FM010900 13004KT 2SM -SN OVC020
     FM011300 16003KT 1/2SM SN FG OVC007
     FM012100 21006KT 3/4SM -SN BR OVC009=



000
FTUS41 KCTP 010318 AAA
TAFIPT
TAF AMD
KIPT 010318Z 0103/0124 VRB03KT P6SM SKC
     FM010600 10004KT P6SM BKN100
     FM011100 10004KT 3SM -SN OVC025
     FM011400 09004KT 3/4SM -SN BR OVC007=



000
FTUS41 KCTP 010317 AAA
TAFJST
TAF AMD
KJST 010317Z 0103/0124 15006KT P6SM SKC
     FM010400 13004KT P6SM OVC100
     FM010800 15005KT 2SM -SN OVC010
     FM011200 15007KT 1/2SM SN FG OVC003
     FM011800 21009KT 1/2SM -SN FG OVC003=



000
FTUS41 KCTP 010317 AAA
TAFJST
TAF AMD
KJST 010317Z 0103/0124 15006KT P6SM SKC
     FM010400 13004KT P6SM OVC100
     FM010800 15005KT 2SM -SN OVC010
     FM011200 15007KT 1/2SM SN FG OVC003
     FM011800 21009KT 1/2SM -SN FG OVC003=



000
FTUS41 KCTP 010317 AAA
TAFJST
TAF AMD
KJST 010317Z 0103/0124 15006KT P6SM SKC
     FM010400 13004KT P6SM OVC100
     FM010800 15005KT 2SM -SN OVC010
     FM011200 15007KT 1/2SM SN FG OVC003
     FM011800 21009KT 1/2SM -SN FG OVC003=



000
FTUS41 KCTP 010317 AAA
TAFJST
TAF AMD
KJST 010317Z 0103/0124 15006KT P6SM SKC
     FM010400 13004KT P6SM OVC100
     FM010800 15005KT 2SM -SN OVC010
     FM011200 15007KT 1/2SM SN FG OVC003
     FM011800 21009KT 1/2SM -SN FG OVC003=



000
FTUS41 KCTP 282335
TAFJST
TAF
KJST 282335Z 0100/0124 10003KT P6SM SKC
     FM010400 13004KT P6SM OVC100
     FM010800 15005KT 2SM -SN OVC010
     FM011200 15007KT 1/2SM SN FG OVC003
     FM011800 21009KT 1/2SM -SN FG OVC003=



000
FTUS41 KCTP 282335
TAFMDT
TAF
KMDT 282335Z 0100/0124 VRB03KT P6SM SKC
     FM010600 12004KT P6SM BKN120
     FM011100 12004KT P6SM OVC040
     FM011400 12004KT 5SM -SN BR OVC015
     FM011600 14002KT 1/2SM SN FG OVC008
     FM012100 15004KT 3/4SM -FZRASN BR OVC008=



000
FTUS41 KCTP 282335
TAFIPT
TAF
KIPT 282335Z 0100/0124 VRB03KT P6SM SKC
     FM010600 10004KT P6SM BKN100
     FM011100 10004KT 3SM -SN OVC025
     FM011400 09004KT 3/4SM -SN BR OVC007=



000
FTUS41 KCTP 282335
TAFAOO
TAF
KAOO 282335Z 0100/0124 15003KT P6SM SKC
     FM010400 13004KT P6SM OVC100
     FM010900 13004KT 2SM -SN OVC020
     FM011300 16003KT 1/2SM SN FG OVC007
     FM012100 21006KT 3/4SM -SN BR OVC009=



000
FTUS41 KCTP 282335
TAFUNV
TAF
KUNV 282335Z 0100/0124 15003KT P6SM SKC
     FM010400 13004KT P6SM OVC100
     FM010900 13004KT 2SM -SN OVC025
     FM011300 16003KT 1/2SM SN FG OVC007
     FM012100 21006KT 3/4SM -SN BR OVC009=



000
FTUS41 KCTP 282335
TAFBFD
TAF
KBFD 282335Z 0100/0124 14003KT P6SM SKC
     FM010400 15004KT P6SM OVC100
     FM010800 15004KT 2SM -SN OVC010
     FM011100 16004KT 3/4SM -SN BR OVC003
     FM011800 22006KT 1/2SM SN FG OVC003=



000
FTUS41 KCTP 282335
TAFAOO
TAF
KAOO 282335Z 0100/0124 15003KT P6SM SKC
     FM010400 13004KT P6SM OVC100
     FM010900 13004KT 2SM -SN OVC020
     FM011300 16003KT 1/2SM SN FG OVC007
     FM012100 21006KT 3/4SM -SN BR OVC009=



000
FTUS41 KCTP 282335
TAFUNV
TAF
KUNV 282335Z 0100/0124 15003KT P6SM SKC
     FM010400 13004KT P6SM OVC100
     FM010900 13004KT 2SM -SN OVC025
     FM011300 16003KT 1/2SM SN FG OVC007
     FM012100 21006KT 3/4SM -SN BR OVC009=



000
FTUS41 KCTP 282335
TAFUNV
TAF
KUNV 282335Z 0100/0124 15003KT P6SM SKC
     FM010400 13004KT P6SM OVC100
     FM010900 13004KT 2SM -SN OVC025
     FM011300 16003KT 1/2SM SN FG OVC007
     FM012100 21006KT 3/4SM -SN BR OVC009=



000
FTUS41 KCTP 282335
TAFBFD
TAF
KBFD 282335Z 0100/0124 14003KT P6SM SKC
     FM010400 15004KT P6SM OVC100
     FM010800 15004KT 2SM -SN OVC010
     FM011100 16004KT 3/4SM -SN BR OVC003
     FM011800 22006KT 1/2SM SN FG OVC003=



000
FTUS41 KCTP 282335
TAFIPT
TAF
KIPT 282335Z 0100/0124 VRB03KT P6SM SKC
     FM010600 10004KT P6SM BKN100
     FM011100 10004KT 3SM -SN OVC025
     FM011400 09004KT 3/4SM -SN BR OVC007=



000
FTUS41 KCTP 282335
TAFIPT
TAF
KIPT 282335Z 0100/0124 VRB03KT P6SM SKC
     FM010600 10004KT P6SM BKN100
     FM011100 10004KT 3SM -SN OVC025
     FM011400 09004KT 3/4SM -SN BR OVC007=



000
FTUS41 KCTP 282335
TAFJST
TAF
KJST 282335Z 0100/0124 10003KT P6SM SKC
     FM010400 13004KT P6SM OVC100
     FM010800 15005KT 2SM -SN OVC010
     FM011200 15007KT 1/2SM SN FG OVC003
     FM011800 21009KT 1/2SM -SN FG OVC003=



000
FTUS41 KCTP 282335
TAFMDT
TAF
KMDT 282335Z 0100/0124 VRB03KT P6SM SKC
     FM010600 12004KT P6SM BKN120
     FM011100 12004KT P6SM OVC040
     FM011400 12004KT 5SM -SN BR OVC015
     FM011600 14002KT 1/2SM SN FG OVC008
     FM012100 15004KT 3/4SM -FZRASN BR OVC008=



000
FTUS41 KCTP 282335
TAFMDT
TAF
KMDT 282335Z 0100/0124 VRB03KT P6SM SKC
     FM010600 12004KT P6SM BKN120
     FM011100 12004KT P6SM OVC040
     FM011400 12004KT 5SM -SN BR OVC015
     FM011600 14002KT 1/2SM SN FG OVC008
     FM012100 15004KT 3/4SM -FZRASN BR OVC008=



000
FTUS41 KCTP 282335
TAFAOO
TAF
KAOO 282335Z 0100/0124 15003KT P6SM SKC
     FM010400 13004KT P6SM OVC100
     FM010900 13004KT 2SM -SN OVC020
     FM011300 16003KT 1/2SM SN FG OVC007
     FM012100 21006KT 3/4SM -SN BR OVC009=



000
FTUS41 KCTP 282335
TAFJST
TAF
KJST 282335Z 0100/0124 10003KT P6SM SKC
     FM010400 13004KT P6SM OVC100
     FM010800 15005KT 2SM -SN OVC010
     FM011200 15007KT 1/2SM SN FG OVC003
     FM011800 21009KT 1/2SM -SN FG OVC003=



000
FTUS41 KCTP 282335
TAFUNV
TAF
KUNV 282335Z 0100/0124 15003KT P6SM SKC
     FM010400 13004KT P6SM OVC100
     FM010900 13004KT 2SM -SN OVC025
     FM011300 16003KT 1/2SM SN FG OVC007
     FM012100 21006KT 3/4SM -SN BR OVC009=



000
FTUS41 KCTP 282335
TAFBFD
TAF
KBFD 282335Z 0100/0124 14003KT P6SM SKC
     FM010400 15004KT P6SM OVC100
     FM010800 15004KT 2SM -SN OVC010
     FM011100 16004KT 3/4SM -SN BR OVC003
     FM011800 22006KT 1/2SM SN FG OVC003=



000
FTUS41 KCTP 282335
TAFBFD
TAF
KBFD 282335Z 0100/0124 14003KT P6SM SKC
     FM010400 15004KT P6SM OVC100
     FM010800 15004KT 2SM -SN OVC010
     FM011100 16004KT 3/4SM -SN BR OVC003
     FM011800 22006KT 1/2SM SN FG OVC003=



000
FTUS41 KCTP 282335
TAFMDT
TAF
KMDT 282335Z 0100/0124 VRB03KT P6SM SKC
     FM010600 12004KT P6SM BKN120
     FM011100 12004KT P6SM OVC040
     FM011400 12004KT 5SM -SN BR OVC015
     FM011600 14002KT 1/2SM SN FG OVC008
     FM012100 15004KT 3/4SM -FZRASN BR OVC008=



000
FTUS41 KCTP 282335
TAFJST
TAF
KJST 282335Z 0100/0124 10003KT P6SM SKC
     FM010400 13004KT P6SM OVC100
     FM010800 15005KT 2SM -SN OVC010
     FM011200 15007KT 1/2SM SN FG OVC003
     FM011800 21009KT 1/2SM -SN FG OVC003=



000
FTUS41 KCTP 282335
TAFIPT
TAF
KIPT 282335Z 0100/0124 VRB03KT P6SM SKC
     FM010600 10004KT P6SM BKN100
     FM011100 10004KT 3SM -SN OVC025
     FM011400 09004KT 3/4SM -SN BR OVC007=



000
FTUS41 KCTP 282335
TAFAOO
TAF
KAOO 282335Z 0100/0124 15003KT P6SM SKC
     FM010400 13004KT P6SM OVC100
     FM010900 13004KT 2SM -SN OVC020
     FM011300 16003KT 1/2SM SN FG OVC007
     FM012100 21006KT 3/4SM -SN BR OVC009=



000
FTUS41 KCTP 282123 AAA
TAFMDT
TAF AMD
KMDT 282123Z 2821/0118 32003KT P6SM SKC
     FM010400 12004KT P6SM BKN120
     FM011100 12004KT P6SM VCSH OVC040
     FM011400 12004KT 6SM -SHSN OVC025
     FM011600 13002KT 1/2SM SN FG OVC015=



000
FTUS41 KCTP 282123 AAA
TAFMDT
TAF AMD
KMDT 282123Z 2821/0118 32003KT P6SM SKC
     FM010400 12004KT P6SM BKN120
     FM011100 12004KT P6SM VCSH OVC040
     FM011400 12004KT 6SM -SHSN OVC025
     FM011600 13002KT 1/2SM SN FG OVC015=



000
FTUS41 KCTP 282122 AAA
TAFUNV
TAF AMD
KUNV 282122Z 2821/0118 VRB03KT P6SM SKC
     FM010400 13004KT P6SM BKN100
     FM010900 13004KT 2SM -SN OVC025
     FM011300 16003KT 1/2SM SN FG OVC015=



000
FTUS41 KCTP 282122 AAA
TAFUNV
TAF AMD
KUNV 282122Z 2821/0118 VRB03KT P6SM SKC
     FM010400 13004KT P6SM BKN100
     FM010900 13004KT 2SM -SN OVC025
     FM011300 16003KT 1/2SM SN FG OVC015=



000
FTUS41 KCTP 282122 AAA
TAFAOO
TAF AMD
KAOO 282122Z 2821/0118 VRB03KT P6SM SKC
     FM010400 13004KT P6SM BKN100
     FM010900 13004KT 2SM -SN OVC025
     FM011300 16003KT 1/2SM SN FG OVC015=



000
FTUS41 KCTP 282122 AAA
TAFAOO
TAF AMD
KAOO 282122Z 2821/0118 VRB03KT P6SM SKC
     FM010400 13004KT P6SM BKN100
     FM010900 13004KT 2SM -SN OVC025
     FM011300 16003KT 1/2SM SN FG OVC015=



000
FTUS41 KCTP 282122 AAA
TAFIPT
TAF AMD
KIPT 282122Z 2821/0118 VRB03KT P6SM SKC
     FM010400 10004KT P6SM BKN100
     FM011100 10004KT 3SM -SN OVC035
     FM011500 09004KT 1 1/2SM -SN BR OVC007=



000
FTUS41 KCTP 282122 AAA
TAFIPT
TAF AMD
KIPT 282122Z 2821/0118 VRB03KT P6SM SKC
     FM010400 10004KT P6SM BKN100
     FM011100 10004KT 3SM -SN OVC035
     FM011500 09004KT 1 1/2SM -SN BR OVC007=



000
FTUS41 KCTP 282118 AAA
TAFJST
TAF AMD
KJST 282118Z 2821/0118 VRB03KT P6SM SKC
     FM010300 13004KT P6SM BKN100
     FM010900 15006KT 2SM -SN OVC018
     FM011300 15004KT 1/2SM SN FG OVC003=



000
FTUS41 KCTP 282118 AAA
TAFJST
TAF AMD
KJST 282118Z 2821/0118 VRB03KT P6SM SKC
     FM010300 13004KT P6SM BKN100
     FM010900 15006KT 2SM -SN OVC018
     FM011300 15004KT 1/2SM SN FG OVC003=



000
FTUS41 KCTP 282116 AAA
TAFBFD
TAF AMD
KBFD 282116Z 2821/0118 VRB03KT P6SM SKC
     FM010300 13003KT P6SM BKN100
     FM010800 15004KT 2SM -SN OVC025
     FM011300 18004KT 1/2SM SN FG OVC003=



000
FTUS41 KCTP 282116 AAA
TAFBFD
TAF AMD
KBFD 282116Z 2821/0118 VRB03KT P6SM SKC
     FM010300 13003KT P6SM BKN100
     FM010800 15004KT 2SM -SN OVC025
     FM011300 18004KT 1/2SM SN FG OVC003=



000
FTUS41 KCTP 281743
TAFMDT
TAF
KMDT 281743Z 2818/0118 00000KT P6SM FEW250
     FM010400 12004KT P6SM BKN120
     FM011100 12004KT P6SM VCSH OVC040
     FM011400 12004KT 6SM -SHSN OVC025
     FM011600 13002KT 1/2SM SN FG OVC015=



000
FTUS41 KCTP 281743
TAFUNV
TAF
KUNV 281743Z 2818/0118 VRB03KT P6SM SCT250
     FM010300 13004KT P6SM BKN100
     FM010900 13004KT 2SM -SN OVC025
     FM011300 16003KT 1/2SM SN FG OVC015=



000
FTUS41 KCTP 281743
TAFMDT
TAF
KMDT 281743Z 2818/0118 00000KT P6SM FEW250
     FM010400 12004KT P6SM BKN120
     FM011100 12004KT P6SM VCSH OVC040
     FM011400 12004KT 6SM -SHSN OVC025
     FM011600 13002KT 1/2SM SN FG OVC015=



000
FTUS41 KCTP 281743
TAFAOO
TAF
KAOO 281743Z 2818/0118 00000KT P6SM SKC
     FM010300 13004KT P6SM BKN100
     FM010900 13004KT 2SM -SN OVC025
     FM011300 16003KT 1/2SM SN FG OVC015=



000
FTUS41 KCTP 281743
TAFMDT
TAF
KMDT 281743Z 2818/0118 00000KT P6SM FEW250
     FM010400 12004KT P6SM BKN120
     FM011100 12004KT P6SM VCSH OVC040
     FM011400 12004KT 6SM -SHSN OVC025
     FM011600 13002KT 1/2SM SN FG OVC015=



000
FTUS41 KCTP 281743
TAFBFD
TAF
KBFD 281743Z 2818/0118 07003KT P6SM SKC
     FM010300 13003KT P6SM BKN100
     FM010800 15004KT 2SM -SN OVC025
     FM011300 18004KT 1/2SM SN FG OVC003=



000
FTUS41 KCTP 281743
TAFAOO
TAF
KAOO 281743Z 2818/0118 00000KT P6SM SKC
     FM010300 13004KT P6SM BKN100
     FM010900 13004KT 2SM -SN OVC025
     FM011300 16003KT 1/2SM SN FG OVC015=



000
FTUS41 KCTP 281743
TAFUNV
TAF
KUNV 281743Z 2818/0118 VRB03KT P6SM SCT250
     FM010300 13004KT P6SM BKN100
     FM010900 13004KT 2SM -SN OVC025
     FM011300 16003KT 1/2SM SN FG OVC015=



000
FTUS41 KCTP 281743
TAFJST
TAF
KJST 281743Z 2818/0118 00000KT P6SM SKC
     FM010300 13004KT P6SM BKN100
     FM010900 15006KT 2SM -SN OVC018
     FM011300 15004KT 1/2SM SN FG OVC003=



000
FTUS41 KCTP 281743
TAFIPT
TAF
KIPT 281743Z 2818/0118 00000KT P6SM SKC
     FM010400 10004KT P6SM BKN100
     FM011100 10004KT 3SM -SN OVC035
     FM011500 09004KT 1 1/2SM -SN BR OVC007=



000
FTUS41 KCTP 281743
TAFAOO
TAF
KAOO 281743Z 2818/0118 00000KT P6SM SKC
     FM010300 13004KT P6SM BKN100
     FM010900 13004KT 2SM -SN OVC025
     FM011300 16003KT 1/2SM SN FG OVC015=



000
FTUS41 KCTP 281743
TAFIPT
TAF
KIPT 281743Z 2818/0118 00000KT P6SM SKC
     FM010400 10004KT P6SM BKN100
     FM011100 10004KT 3SM -SN OVC035
     FM011500 09004KT 1 1/2SM -SN BR OVC007=



000
FTUS41 KCTP 281743
TAFBFD
TAF
KBFD 281743Z 2818/0118 07003KT P6SM SKC
     FM010300 13003KT P6SM BKN100
     FM010800 15004KT 2SM -SN OVC025
     FM011300 18004KT 1/2SM SN FG OVC003=



000
FTUS41 KCTP 281743
TAFIPT
TAF
KIPT 281743Z 2818/0118 00000KT P6SM SKC
     FM010400 10004KT P6SM BKN100
     FM011100 10004KT 3SM -SN OVC035
     FM011500 09004KT 1 1/2SM -SN BR OVC007=



000
FTUS41 KCTP 281743
TAFBFD
TAF
KBFD 281743Z 2818/0118 07003KT P6SM SKC
     FM010300 13003KT P6SM BKN100
     FM010800 15004KT 2SM -SN OVC025
     FM011300 18004KT 1/2SM SN FG OVC003=



000
FTUS41 KCTP 281743
TAFUNV
TAF
KUNV 281743Z 2818/0118 VRB03KT P6SM SCT250
     FM010300 13004KT P6SM BKN100
     FM010900 13004KT 2SM -SN OVC025
     FM011300 16003KT 1/2SM SN FG OVC015=



000
FTUS41 KCTP 281743
TAFJST
TAF
KJST 281743Z 2818/0118 00000KT P6SM SKC
     FM010300 13004KT P6SM BKN100
     FM010900 15006KT 2SM -SN OVC018
     FM011300 15004KT 1/2SM SN FG OVC003=



000
FTUS41 KCTP 281743
TAFJST
TAF
KJST 281743Z 2818/0118 00000KT P6SM SKC
     FM010300 13004KT P6SM BKN100
     FM010900 15006KT 2SM -SN OVC018
     FM011300 15004KT 1/2SM SN FG OVC003=



000
FTUS41 KCTP 281743
TAFUNV
TAF
KUNV 281743Z 2818/0118 VRB03KT P6SM SCT250
     FM010300 13004KT P6SM BKN100
     FM010900 13004KT 2SM -SN OVC025
     FM011300 16003KT 1/2SM SN FG OVC015=



000
FTUS41 KCTP 281743
TAFAOO
TAF
KAOO 281743Z 2818/0118 00000KT P6SM SKC
     FM010300 13004KT P6SM BKN100
     FM010900 13004KT 2SM -SN OVC025
     FM011300 16003KT 1/2SM SN FG OVC015=



000
FTUS41 KCTP 281743
TAFIPT
TAF
KIPT 281743Z 2818/0118 00000KT P6SM SKC
     FM010400 10004KT P6SM BKN100
     FM011100 10004KT 3SM -SN OVC035
     FM011500 09004KT 1 1/2SM -SN BR OVC007=



000
FTUS41 KCTP 281743
TAFBFD
TAF
KBFD 281743Z 2818/0118 07003KT P6SM SKC
     FM010300 13003KT P6SM BKN100
     FM010800 15004KT 2SM -SN OVC025
     FM011300 18004KT 1/2SM SN FG OVC003=



000
FTUS41 KCTP 281743
TAFJST
TAF
KJST 281743Z 2818/0118 00000KT P6SM SKC
     FM010300 13004KT P6SM BKN100
     FM010900 15006KT 2SM -SN OVC018
     FM011300 15004KT 1/2SM SN FG OVC003=



000
FTUS41 KCTP 281743
TAFMDT
TAF
KMDT 281743Z 2818/0118 00000KT P6SM FEW250
     FM010400 12004KT P6SM BKN120
     FM011100 12004KT P6SM VCSH OVC040
     FM011400 12004KT 6SM -SHSN OVC025
     FM011600 13002KT 1/2SM SN FG OVC015=



000
FTUS41 KCTP 281545 AAD
TAFBFD
TAF AMD
KBFD 281545Z 2816/0112 00000KT P6SM SKC
     FM010300 13003KT P6SM BKN100
     FM010800 15004KT 2SM -SN OVC025=



000
FTUS41 KCTP 281545 AAA
TAFJST
TAF AMD
KJST 281545Z 2816/0112 00000KT P6SM SKC
     FM010300 13004KT P6SM BKN100
     FM010900 15006KT 2SM -SN OVC018=



000
FTUS41 KCTP 281545 AAA
TAFAOO
TAF AMD
KAOO 281545Z 2816/0112 00000KT P6SM SKC
     FM010300 13004KT P6SM BKN100
     FM010900 13004KT 2SM -SN OVC025=



000
FTUS41 KCTP 281545 AAA
TAFMDT
TAF AMD
KMDT 281545Z 2816/0112 VRB03KT P6SM SCT250
     FM010400 12004KT P6SM BKN120
     FM011100 12004KT 6SM -SHSN OVC040=



000
FTUS41 KCTP 281545 AAA
TAFAOO
TAF AMD
KAOO 281545Z 2816/0112 00000KT P6SM SKC
     FM010300 13004KT P6SM BKN100
     FM010900 13004KT 2SM -SN OVC025=



000
FTUS41 KCTP 281545 AAA
TAFUNV
TAF AMD
KUNV 281545Z 2816/0112 VRB03KT P6SM SCT250
     FM010300 13004KT P6SM BKN100
     FM010900 13004KT 2SM -SN OVC025=



000
FTUS41 KCTP 281545 AAA
TAFUNV
TAF AMD
KUNV 281545Z 2816/0112 VRB03KT P6SM SCT250
     FM010300 13004KT P6SM BKN100
     FM010900 13004KT 2SM -SN OVC025=



000
FTUS41 KCTP 281545 AAA
TAFIPT
TAF AMD
KIPT 281545Z 2816/0112 27006KT P6SM SKC
     FM010400 10004KT P6SM BKN100
     FM011100 10004KT 3SM -SN OVC035=



000
FTUS41 KCTP 281545 AAA
TAFJST
TAF AMD
KJST 281545Z 2816/0112 00000KT P6SM SKC
     FM010300 13004KT P6SM BKN100
     FM010900 15006KT 2SM -SN OVC018=



000
FTUS41 KCTP 281545 AAD
TAFBFD
TAF AMD
KBFD 281545Z 2816/0112 00000KT P6SM SKC
     FM010300 13003KT P6SM BKN100
     FM010800 15004KT 2SM -SN OVC025=



000
FTUS41 KCTP 281545 AAA
TAFIPT
TAF AMD
KIPT 281545Z 2816/0112 27006KT P6SM SKC
     FM010400 10004KT P6SM BKN100
     FM011100 10004KT 3SM -SN OVC035=



000
FTUS41 KCTP 281545 AAA
TAFMDT
TAF AMD
KMDT 281545Z 2816/0112 VRB03KT P6SM SCT250
     FM010400 12004KT P6SM BKN120
     FM011100 12004KT 6SM -SHSN OVC040=



000
FTUS41 KCTP 281433 AAC
TAFBFD
TAF AMD
KBFD 281433Z 2815/0112 00000KT P6SM SKC
     FM010300 13003KT P6SM BKN100
     FM010800 15004KT 2SM -SN OVC025=



000
FTUS41 KCTP 281348 AAB
TAFBFD
TAF AMD
KBFD 281348Z 2814/0112 00000KT 1 1/2SM BR SKC
     FM281500 19003KT P6SM SCT250
     FM010300 13003KT P6SM BKN100
     FM010800 15004KT 2SM -SN OVC025=



000
FTUS41 KCTP 281348 AAB
TAFBFD
TAF AMD
KBFD 281348Z 2814/0112 00000KT 1 1/2SM BR SKC
     FM281500 19003KT P6SM SCT250
     FM010300 13003KT P6SM BKN100
     FM010800 15004KT 2SM -SN OVC025=



000
FTUS41 KCTP 281348 AAB
TAFBFD
TAF AMD
KBFD 281348Z 2814/0112 00000KT 1 1/2SM BR SKC
     FM281500 19003KT P6SM SCT250
     FM010300 13003KT P6SM BKN100
     FM010800 15004KT 2SM -SN OVC025=



000
FTUS41 KCTP 281348 AAB
TAFBFD
TAF AMD
KBFD 281348Z 2814/0112 00000KT 1 1/2SM BR SKC
     FM281500 19003KT P6SM SCT250
     FM010300 13003KT P6SM BKN100
     FM010800 15004KT 2SM -SN OVC025=



000
FTUS41 KCTP 281230 AAA
TAFBFD
TAF AMD
KBFD 281230Z 2813/0112 19003KT 5SM BR SCT250
     FM281330 19003KT P6SM SCT250
     FM010300 13003KT P6SM BKN100
     FM010800 15004KT 2SM -SN OVC025=



000
FTUS41 KCTP 281230 AAA
TAFBFD
TAF AMD
KBFD 281230Z 2813/0112 19003KT 5SM BR SCT250
     FM281330 19003KT P6SM SCT250
     FM010300 13003KT P6SM BKN100
     FM010800 15004KT 2SM -SN OVC025=



000
FTUS41 KCTP 281230 AAA
TAFBFD
TAF AMD
KBFD 281230Z 2813/0112 19003KT 5SM BR SCT250
     FM281330 19003KT P6SM SCT250
     FM010300 13003KT P6SM BKN100
     FM010800 15004KT 2SM -SN OVC025=



000
FTUS41 KCTP 281230 AAA
TAFBFD
TAF AMD
KBFD 281230Z 2813/0112 19003KT 5SM BR SCT250
     FM281330 19003KT P6SM SCT250
     FM010300 13003KT P6SM BKN100
     FM010800 15004KT 2SM -SN OVC025=



000
FTUS41 KCTP 281128
TAFBFD
TAF
KBFD 281128Z 2812/0112 19003KT P6SM SCT250
     FM010300 13003KT P6SM BKN100
     FM010800 15004KT 2SM -SN OVC025=



000
FTUS41 KCTP 281128
TAFAOO
TAF
KAOO 281128Z 2812/0112 VRB03KT P6SM SCT250
     FM010300 13004KT P6SM BKN100
     FM010900 13004KT 2SM -SN OVC025=



000
FTUS41 KCTP 281128
TAFUNV
TAF
KUNV 281128Z 2812/0112 VRB03KT P6SM SCT250
     FM010300 13004KT P6SM BKN100
     FM010900 13004KT 2SM -SN OVC025=



000
FTUS41 KCTP 281128
TAFJST
TAF
KJST 281128Z 2812/0112 19003KT P6SM SCT250
     FM010300 13004KT P6SM BKN100
     FM010900 15006KT 2SM -SN OVC018=



000
FTUS41 KCTP 281128
TAFJST
TAF
KJST 281128Z 2812/0112 19003KT P6SM SCT250
     FM010300 13004KT P6SM BKN100
     FM010900 15006KT 2SM -SN OVC018=



000
FTUS41 KCTP 281128
TAFBFD
TAF
KBFD 281128Z 2812/0112 19003KT P6SM SCT250
     FM010300 13003KT P6SM BKN100
     FM010800 15004KT 2SM -SN OVC025=



000
FTUS41 KCTP 281128
TAFMDT
TAF
KMDT 281128Z 2812/0112 31003KT P6SM SCT250
     FM010400 12004KT P6SM BKN120
     FM011100 12004KT 6SM -SHSN OVC040=



000
FTUS41 KCTP 281128
TAFAOO
TAF
KAOO 281128Z 2812/0112 VRB03KT P6SM SCT250
     FM010300 13004KT P6SM BKN100
     FM010900 13004KT 2SM -SN OVC025=



000
FTUS41 KCTP 281128
TAFUNV
TAF
KUNV 281128Z 2812/0112 VRB03KT P6SM SCT250
     FM010300 13004KT P6SM BKN100
     FM010900 13004KT 2SM -SN OVC025=



000
FTUS41 KCTP 281128
TAFIPT
TAF
KIPT 281128Z 2812/0112 VRB03KT P6SM SCT250
     FM010400 10004KT P6SM BKN100
     FM011100 10004KT 3SM -SN OVC035=



000
FTUS41 KCTP 280932 AAA
TAFJST
TAF AMD
KJST 280932Z 2810/0106 VRB03KT P6SM SCT250
     FM010000 13004KT P6SM BKN100=



000
FTUS41 KCTP 280932 AAA
TAFBFD
TAF AMD
KBFD 280932Z 2810/0106 VRB02KT P6SM SCT250=



000
FTUS41 KCTP 280932 AAA
TAFUNV
TAF AMD
KUNV 280932Z 2810/0106 VRB03KT P6SM SCT250=



000
FTUS41 KCTP 280932 AAA
TAFAOO
TAF AMD
KAOO 280932Z 2810/0106 VRB03KT P6SM SCT250
     FM010300 13003KT P6SM BKN100=



000
FTUS41 KCTP 280932 AAA
TAFIPT
TAF AMD
KIPT 280932Z 2810/0106 VRB03KT P6SM SCT250=



000
FTUS41 KCTP 280932 AAA
TAFMDT
TAF AMD
KMDT 280932Z 2810/0106 VRB05KT P6SM SCT250=



000
FTUS41 KCTP 280932 AAA
TAFIPT
TAF AMD
KIPT 280932Z 2810/0106 VRB03KT P6SM SCT250=



000
FTUS41 KCTP 280932 AAA
TAFMDT
TAF AMD
KMDT 280932Z 2810/0106 VRB05KT P6SM SCT250=



000
FTUS41 KCTP 280537
TAFBFD
TAF
KBFD 280537Z 2806/0106 VRB02KT P6SM SCT250=



000
FTUS41 KCTP 280537
TAFMDT
TAF
KMDT 280537Z 2806/0106 31008KT P6SM SKC
     FM280900 VRB05KT P6SM SCT250=



000
FTUS41 KCTP 280537
TAFUNV
TAF
KUNV 280537Z 2806/0106 30003KT P6SM SKC
     FM280900 VRB03KT P6SM SCT250=



000
FTUS41 KCTP 280537
TAFIPT
TAF
KIPT 280537Z 2806/0106 31003KT P6SM SKC
     FM280900 VRB03KT P6SM SCT250=



000
FTUS41 KCTP 280537
TAFJST
TAF
KJST 280537Z 2806/0106 33004KT P6SM SCT250
     FM280900 VRB03KT P6SM SCT250
     FM010000 13004KT P6SM BKN100=



000
FTUS41 KCTP 280537
TAFAOO
TAF
KAOO 280537Z 2806/0106 VRB03KT P6SM SCT250
     FM010300 13003KT P6SM BKN100=



000
FTUS41 KCTP 280537
TAFMDT
TAF
KMDT 280537Z 2806/0106 31008KT P6SM SKC
     FM280900 VRB05KT P6SM SCT250=



000
FTUS41 KCTP 280537
TAFJST
TAF
KJST 280537Z 2806/0106 33004KT P6SM SCT250
     FM280900 VRB03KT P6SM SCT250
     FM010000 13004KT P6SM BKN100=



000
FTUS41 KCTP 280537
TAFAOO
TAF
KAOO 280537Z 2806/0106 VRB03KT P6SM SCT250
     FM010300 13003KT P6SM BKN100=



000
FTUS41 KCTP 280537
TAFUNV
TAF
KUNV 280537Z 2806/0106 30003KT P6SM SKC
     FM280900 VRB03KT P6SM SCT250=



000
FTUS41 KCTP 280537
TAFBFD
TAF
KBFD 280537Z 2806/0106 VRB02KT P6SM SCT250=



000
FTUS41 KCTP 280537
TAFIPT
TAF
KIPT 280537Z 2806/0106 31003KT P6SM SKC
     FM280900 VRB03KT P6SM SCT250=



000
FTUS41 KCTP 280537
TAFMDT
TAF
KMDT 280537Z 2806/0106 31008KT P6SM SKC
     FM280900 VRB05KT P6SM SCT250=



000
FTUS41 KCTP 280537
TAFIPT
TAF
KIPT 280537Z 2806/0106 31003KT P6SM SKC
     FM280900 VRB03KT P6SM SCT250=



000
FTUS41 KCTP 280537
TAFJST
TAF
KJST 280537Z 2806/0106 33004KT P6SM SCT250
     FM280900 VRB03KT P6SM SCT250
     FM010000 13004KT P6SM BKN100=



000
FTUS41 KCTP 280537
TAFAOO
TAF
KAOO 280537Z 2806/0106 VRB03KT P6SM SCT250
     FM010300 13003KT P6SM BKN100=



000
FTUS41 KCTP 280537
TAFBFD
TAF
KBFD 280537Z 2806/0106 VRB02KT P6SM SCT250=



000
FTUS41 KCTP 280537
TAFUNV
TAF
KUNV 280537Z 2806/0106 30003KT P6SM SKC
     FM280900 VRB03KT P6SM SCT250=



000
FTUS41 KCTP 280537
TAFUNV
TAF
KUNV 280537Z 2806/0106 30003KT P6SM SKC
     FM280900 VRB03KT P6SM SCT250=



000
FTUS41 KCTP 280537
TAFIPT
TAF
KIPT 280537Z 2806/0106 31003KT P6SM SKC
     FM280900 VRB03KT P6SM SCT250=



000
FTUS41 KCTP 280537
TAFBFD
TAF
KBFD 280537Z 2806/0106 VRB02KT P6SM SCT250=



000
FTUS41 KCTP 280537
TAFJST
TAF
KJST 280537Z 2806/0106 33004KT P6SM SCT250
     FM280900 VRB03KT P6SM SCT250
     FM010000 13004KT P6SM BKN100=



000
FTUS41 KCTP 280537
TAFAOO
TAF
KAOO 280537Z 2806/0106 VRB03KT P6SM SCT250
     FM010300 13003KT P6SM BKN100=



000
FTUS41 KCTP 280537
TAFMDT
TAF
KMDT 280537Z 2806/0106 31008KT P6SM SKC
     FM280900 VRB05KT P6SM SCT250=



000
FTUS41 KCTP 280327 AAA
TAFAOO
TAF AMD
KAOO 280327Z 2803/2824 30006KT P6SM SKC
     FM280600 VRB03KT P6SM SCT250=



000
FTUS41 KCTP 280327 AAB
TAFMDT
TAF AMD
KMDT 280327Z 2803/2824 31006KT P6SM SKC
     FM280600 VRB03KT P6SM SCT250=



000
FTUS41 KCTP 280327 AAA
TAFIPT
TAF AMD
KIPT 280327Z 2803/2824 31005KT P6SM SKC
     FM280600 VRB03KT P6SM SCT250=



000
FTUS41 KCTP 280327 AAB
TAFUNV
TAF AMD
KUNV 280327Z 2803/2824 28007KT P6SM SKC
     FM280600 VRB03KT P6SM SCT250=



000
FTUS41 KCTP 280327 AAA
TAFBFD
TAF AMD
KBFD 280327Z 2803/2824 VRB02KT P6SM SCT250=



000
FTUS41 KCTP 280327 AAA
TAFJST
TAF AMD
KJST 280327Z 2803/2824 31007KT P6SM SCT250
     FM280600 VRB04KT P6SM SCT250=



000
FTUS41 KCTP 280327 AAA
TAFJST
TAF AMD
KJST 280327Z 2803/2824 31007KT P6SM SCT250
     FM280600 VRB04KT P6SM SCT250=



000
FTUS41 KCTP 280327 AAA
TAFBFD
TAF AMD
KBFD 280327Z 2803/2824 VRB02KT P6SM SCT250=



000
FTUS41 KCTP 280327 AAB
TAFUNV
TAF AMD
KUNV 280327Z 2803/2824 28007KT P6SM SKC
     FM280600 VRB03KT P6SM SCT250=



000
FTUS41 KCTP 280327 AAA
TAFJST
TAF AMD
KJST 280327Z 2803/2824 31007KT P6SM SCT250
     FM280600 VRB04KT P6SM SCT250=



000
FTUS41 KCTP 280327 AAA
TAFAOO
TAF AMD
KAOO 280327Z 2803/2824 30006KT P6SM SKC
     FM280600 VRB03KT P6SM SCT250=



000
FTUS41 KCTP 280327 AAA
TAFAOO
TAF AMD
KAOO 280327Z 2803/2824 30006KT P6SM SKC
     FM280600 VRB03KT P6SM SCT250=



000
FTUS41 KCTP 280327 AAB
TAFUNV
TAF AMD
KUNV 280327Z 2803/2824 28007KT P6SM SKC
     FM280600 VRB03KT P6SM SCT250=



000
FTUS41 KCTP 280327 AAA
TAFAOO
TAF AMD
KAOO 280327Z 2803/2824 30006KT P6SM SKC
     FM280600 VRB03KT P6SM SCT250=



000
FTUS41 KCTP 280327 AAA
TAFIPT
TAF AMD
KIPT 280327Z 2803/2824 31005KT P6SM SKC
     FM280600 VRB03KT P6SM SCT250=



000
FTUS41 KCTP 280327 AAA
TAFBFD
TAF AMD
KBFD 280327Z 2803/2824 VRB02KT P6SM SCT250=



000
FTUS41 KCTP 280327 AAB
TAFMDT
TAF AMD
KMDT 280327Z 2803/2824 31006KT P6SM SKC
     FM280600 VRB03KT P6SM SCT250=



000
FTUS41 KCTP 280327 AAB
TAFUNV
TAF AMD
KUNV 280327Z 2803/2824 28007KT P6SM SKC
     FM280600 VRB03KT P6SM SCT250=



000
FTUS41 KCTP 280327 AAA
TAFIPT
TAF AMD
KIPT 280327Z 2803/2824 31005KT P6SM SKC
     FM280600 VRB03KT P6SM SCT250=



000
FTUS41 KCTP 280327 AAB
TAFMDT
TAF AMD
KMDT 280327Z 2803/2824 31006KT P6SM SKC
     FM280600 VRB03KT P6SM SCT250=



000
FTUS41 KCTP 280202 AAA
TAFMDT
TAF AMD
KMDT 280202Z 2802/2824 31007KT P6SM SKC
     FM280400 VRB02KT P6SM SKC
     FM281500 VRB04KT P6SM SCT250=



000
FTUS41 KCTP 280157 AAA
TAFUNV
TAF AMD
KUNV 280157Z 2802/2824 28007KT P6SM SKC
     FM280400 VRB02KT P6SM SKC
     FM281400 VRB04KT P6SM SCT250=



000
FTUS41 KCTP 280157 AAA
TAFUNV
TAF AMD
KUNV 280157Z 2802/2824 28007KT P6SM SKC
     FM280400 VRB02KT P6SM SKC
     FM281400 VRB04KT P6SM SCT250=



000
FTUS41 KCTP 280157 AAA
TAFUNV
TAF AMD
KUNV 280157Z 2802/2824 28007KT P6SM SKC
     FM280400 VRB02KT P6SM SKC
     FM281400 VRB04KT P6SM SCT250=



000
FTUS41 KCTP 280157 AAA
TAFUNV
TAF AMD
KUNV 280157Z 2802/2824 28007KT P6SM SKC
     FM280400 VRB02KT P6SM SKC
     FM281400 VRB04KT P6SM SCT250=



000
FTUS41 KCTP 272330
TAFJST
TAF
KJST 272330Z 2800/2824 28010KT P6SM SCT030
     FM280100 28004KT P6SM SKC
     FM281200 VRB04KT P6SM SCT250=



000
FTUS41 KCTP 272330
TAFUNV
TAF
KUNV 272330Z 2800/2824 28007KT P6SM SCT030
     FM280100 VRB02KT P6SM SKC
     FM281400 VRB04KT P6SM SCT250=



000
FTUS41 KCTP 272330
TAFBFD
TAF
KBFD 272330Z 2800/2824 30008KT P6SM SKC
     FM280100 VRB02KT P6SM SKC
     FM281500 VRB04KT P6SM SCT250=



000
FTUS41 KCTP 272330
TAFAOO
TAF
KAOO 272330Z 2800/2824 29007KT P6SM SKC
     FM280100 VRB02KT P6SM SKC
     FM281200 VRB04KT P6SM SCT250=



000
FTUS41 KCTP 272330
TAFMDT
TAF
KMDT 272330Z 2800/2824 33006KT P6SM SCT050
     FM280200 VRB02KT P6SM SKC
     FM281500 VRB04KT P6SM SCT250=



000
FTUS41 KCTP 272330
TAFIPT
TAF
KIPT 272330Z 2800/2824 27006KT P6SM SCT060
     FM280100 VRB02KT P6SM SKC
     FM281500 VRB04KT P6SM SCT250=



000
FTUS41 KCTP 272330
TAFUNV
TAF
KUNV 272330Z 2800/2824 28007KT P6SM SCT030
     FM280100 VRB02KT P6SM SKC
     FM281400 VRB04KT P6SM SCT250=



000
FTUS41 KCTP 272330
TAFAOO
TAF
KAOO 272330Z 2800/2824 29007KT P6SM SKC
     FM280100 VRB02KT P6SM SKC
     FM281200 VRB04KT P6SM SCT250=



000
FTUS41 KCTP 272330
TAFJST
TAF
KJST 272330Z 2800/2824 28010KT P6SM SCT030
     FM280100 28004KT P6SM SKC
     FM281200 VRB04KT P6SM SCT250=



000
FTUS41 KCTP 272330
TAFMDT
TAF
KMDT 272330Z 2800/2824 33006KT P6SM SCT050
     FM280200 VRB02KT P6SM SKC
     FM281500 VRB04KT P6SM SCT250=



000
FTUS41 KCTP 272330
TAFBFD
TAF
KBFD 272330Z 2800/2824 30008KT P6SM SKC
     FM280100 VRB02KT P6SM SKC
     FM281500 VRB04KT P6SM SCT250=



000
FTUS41 KCTP 272330
TAFIPT
TAF
KIPT 272330Z 2800/2824 27006KT P6SM SCT060
     FM280100 VRB02KT P6SM SKC
     FM281500 VRB04KT P6SM SCT250=



000
FTUS41 KCTP 272138 AAA
TAFMDT
TAF AMD
KMDT 272138Z 2722/2818 32007KT P6SM SCT040
     FM280000 30005KT P6SM SCT220=



000
FTUS41 KCTP 272138 AAA
TAFIPT
TAF AMD
KIPT 272138Z 2722/2818 27006KT P6SM SCT040
     FM280000 VRB02KT P6SM SCT250=



000
FTUS41 KCTP 272138 AAA
TAFIPT
TAF AMD
KIPT 272138Z 2722/2818 27006KT P6SM SCT040
     FM280000 VRB02KT P6SM SCT250=



000
FTUS41 KCTP 272138 AAA
TAFMDT
TAF AMD
KMDT 272138Z 2722/2818 32007KT P6SM SCT040
     FM280000 30005KT P6SM SCT220=



000
FTUS41 KCTP 272138 AAA
TAFIPT
TAF AMD
KIPT 272138Z 2722/2818 27006KT P6SM SCT040
     FM280000 VRB02KT P6SM SCT250=



000
FTUS41 KCTP 272138 AAA
TAFMDT
TAF AMD
KMDT 272138Z 2722/2818 32007KT P6SM SCT040
     FM280000 30005KT P6SM SCT220=



000
FTUS41 KCTP 272138 AAA
TAFMDT
TAF AMD
KMDT 272138Z 2722/2818 32007KT P6SM SCT040
     FM280000 30005KT P6SM SCT220=



000
FTUS41 KCTP 272137 AAA
TAFUNV
TAF AMD
KUNV 272137Z 2722/2818 29010KT P6SM SCT035
     FM272200 30006KT P6SM SKC
     FM280200 VRB02KT P6SM BKN250=



000
FTUS41 KCTP 272137 AAA
TAFUNV
TAF AMD
KUNV 272137Z 2722/2818 29010KT P6SM SCT035
     FM272200 30006KT P6SM SKC
     FM280200 VRB02KT P6SM BKN250=



000
FTUS41 KCTP 272137 AAA
TAFUNV
TAF AMD
KUNV 272137Z 2722/2818 29010KT P6SM SCT035
     FM272200 30006KT P6SM SKC
     FM280200 VRB02KT P6SM BKN250=



000
FTUS41 KCTP 272136 AAA
TAFAOO
TAF AMD
KAOO 272136Z 2722/2818 29008KT P6SM SCT035
     FM272200 30006KT P6SM SKC
     FM280200 VRB02KT P6SM BKN250=



000
FTUS41 KCTP 272136 AAA
TAFAOO
TAF AMD
KAOO 272136Z 2722/2818 29008KT P6SM SCT035
     FM272200 30006KT P6SM SKC
     FM280200 VRB02KT P6SM BKN250=



000
FTUS41 KCTP 272136 AAA
TAFAOO
TAF AMD
KAOO 272136Z 2722/2818 29008KT P6SM SCT035
     FM272200 30006KT P6SM SKC
     FM280200 VRB02KT P6SM BKN250=



000
FTUS41 KCTP 272136 AAA
TAFAOO
TAF AMD
KAOO 272136Z 2722/2818 29008KT P6SM SCT035
     FM272200 30006KT P6SM SKC
     FM280200 VRB02KT P6SM BKN250=



000
FTUS41 KCTP 272107 AAA
TAFBFD
TAF AMD
KBFD 272107Z 2721/2818 32011KT P6SM SKC
     FM272200 29004KT P6SM SCT250=



000
FTUS41 KCTP 272107 AAA
TAFBFD
TAF AMD
KBFD 272107Z 2721/2818 32011KT P6SM SKC
     FM272200 29004KT P6SM SCT250=



000
FTUS41 KCTP 272105 AAB
TAFJST
TAF AMD
KJST 272105Z 2721/2818 27008G15KT P6SM SCT030
     FM272300 30007KT P6SM SKC
     FM280300 30006KT P6SM SCT250=



000
FTUS41 KCTP 272105 AAB
TAFJST
TAF AMD
KJST 272105Z 2721/2818 27008G15KT P6SM SCT030
     FM272300 30007KT P6SM SKC
     FM280300 30006KT P6SM SCT250=



000
FTUS41 KCTP 271806 AAA
TAFJST
TAF AMD
KJST 271806Z 2718/2818 28008G15KT P6SM OVC021
     FM272000 30007KT P6SM BKN022
     FM280300 30006KT P6SM SCT027 BKN250=



000
FTUS41 KCTP 271806 AAA
TAFJST
TAF AMD
KJST 271806Z 2718/2818 28008G15KT P6SM OVC021
     FM272000 30007KT P6SM BKN022
     FM280300 30006KT P6SM SCT027 BKN250=



000
FTUS41 KCTP 271806 AAA
TAFJST
TAF AMD
KJST 271806Z 2718/2818 28008G15KT P6SM OVC021
     FM272000 30007KT P6SM BKN022
     FM280300 30006KT P6SM SCT027 BKN250=



000
FTUS41 KCTP 271806 AAA
TAFJST
TAF AMD
KJST 271806Z 2718/2818 28008G15KT P6SM OVC021
     FM272000 30007KT P6SM BKN022
     FM280300 30006KT P6SM SCT027 BKN250=



000
FTUS41 KCTP 271740
TAFAOO
TAF
KAOO 271740Z 2718/2818 28008KT P6SM BKN035
     FM272200 30006KT P6SM SKC
     FM280200 VRB02KT P6SM BKN250=



000
FTUS41 KCTP 271740
TAFAOO
TAF
KAOO 271740Z 2718/2818 28008KT P6SM BKN035
     FM272200 30006KT P6SM SKC
     FM280200 VRB02KT P6SM BKN250=



000
FTUS41 KCTP 271740
TAFIPT
TAF
KIPT 271740Z 2718/2818 30006KT P6SM SCT040
     FM280000 VRB02KT P6SM SCT250=



000
FTUS41 KCTP 271740
TAFJST
TAF
KJST 271740Z 2718/2818 26010KT P6SM BKN017
     FM272000 30007KT P6SM BKN022
     FM280300 30006KT P6SM SCT027 BKN250=



000
FTUS41 KCTP 271740
TAFBFD
TAF
KBFD 271740Z 2718/2818 25006KT P6SM SCT020
     FM271900 28005KT P6SM SCT023
     FM272200 29004KT P6SM FEW025 SCT250=



000
FTUS41 KCTP 271740
TAFUNV
TAF
KUNV 271740Z 2718/2818 28008KT P6SM BKN035
     FM272200 30006KT P6SM SKC
     FM280200 VRB02KT P6SM BKN250=



000
FTUS41 KCTP 271740
TAFIPT
TAF
KIPT 271740Z 2718/2818 30006KT P6SM SCT040
     FM280000 VRB02KT P6SM SCT250=



000
FTUS41 KCTP 271740
TAFJST
TAF
KJST 271740Z 2718/2818 26010KT P6SM BKN017
     FM272000 30007KT P6SM BKN022
     FM280300 30006KT P6SM SCT027 BKN250=



000
FTUS41 KCTP 271740
TAFBFD
TAF
KBFD 271740Z 2718/2818 25006KT P6SM SCT020
     FM271900 28005KT P6SM SCT023
     FM272200 29004KT P6SM FEW025 SCT250=



000
FTUS41 KCTP 271740
TAFUNV
TAF
KUNV 271740Z 2718/2818 28008KT P6SM BKN035
     FM272200 30006KT P6SM SKC
     FM280200 VRB02KT P6SM BKN250=



000
FTUS41 KCTP 271740
TAFIPT
TAF
KIPT 271740Z 2718/2818 30006KT P6SM SCT040
     FM280000 VRB02KT P6SM SCT250=



000
FTUS41 KCTP 271740
TAFJST
TAF
KJST 271740Z 2718/2818 26010KT P6SM BKN017
     FM272000 30007KT P6SM BKN022
     FM280300 30006KT P6SM SCT027 BKN250=



000
FTUS41 KCTP 271740
TAFBFD
TAF
KBFD 271740Z 2718/2818 25006KT P6SM SCT020
     FM271900 28005KT P6SM SCT023
     FM272200 29004KT P6SM FEW025 SCT250=



000
FTUS41 KCTP 271740
TAFUNV
TAF
KUNV 271740Z 2718/2818 28008KT P6SM BKN035
     FM272200 30006KT P6SM SKC
     FM280200 VRB02KT P6SM BKN250=



000
FTUS41 KCTP 271740
TAFMDT
TAF
KMDT 271740Z 2718/2818 32008KT P6SM SCT040
     FM280000 30005KT P6SM SCT220=



000
FTUS41 KCTP 271740
TAFMDT
TAF
KMDT 271740Z 2718/2818 32008KT P6SM SCT040
     FM280000 30005KT P6SM SCT220=



000
FTUS41 KCTP 271740
TAFMDT
TAF
KMDT 271740Z 2718/2818 32008KT P6SM SCT040
     FM280000 30005KT P6SM SCT220=



000
FTUS41 KCTP 271740
TAFAOO
TAF
KAOO 271740Z 2718/2818 28008KT P6SM BKN035
     FM272200 30006KT P6SM SKC
     FM280200 VRB02KT P6SM BKN250=



000
FTUS41 KCTP 271740
TAFAOO
TAF
KAOO 271740Z 2718/2818 28008KT P6SM BKN035
     FM272200 30006KT P6SM SKC
     FM280200 VRB02KT P6SM BKN250=



000
FTUS41 KCTP 271740
TAFIPT
TAF
KIPT 271740Z 2718/2818 30006KT P6SM SCT040
     FM280000 VRB02KT P6SM SCT250=



000
FTUS41 KCTP 271740
TAFJST
TAF
KJST 271740Z 2718/2818 26010KT P6SM BKN017
     FM272000 30007KT P6SM BKN022
     FM280300 30006KT P6SM SCT027 BKN250=



000
FTUS41 KCTP 271740
TAFBFD
TAF
KBFD 271740Z 2718/2818 25006KT P6SM SCT020
     FM271900 28005KT P6SM SCT023
     FM272200 29004KT P6SM FEW025 SCT250=



000
FTUS41 KCTP 271740
TAFUNV
TAF
KUNV 271740Z 2718/2818 28008KT P6SM BKN035
     FM272200 30006KT P6SM SKC
     FM280200 VRB02KT P6SM BKN250=



000
FTUS41 KCTP 271740
TAFMDT
TAF
KMDT 271740Z 2718/2818 32008KT P6SM SCT040
     FM280000 30005KT P6SM SCT220=



000
FTUS41 KCTP 271729 AAD
TAFBFD
TAF AMD
KBFD 271729Z 2717/2812 26006KT P6SM SCT020
     FM271900 28005KT P6SM SCT023
     FM272200 29004KT P6SM FEW025=



000
FTUS41 KCTP 271729 AAD
TAFBFD
TAF AMD
KBFD 271729Z 2717/2812 26006KT P6SM SCT020
     FM271900 28005KT P6SM SCT023
     FM272200 29004KT P6SM FEW025=



    US Dept of Commerce
    National Oceanic and Atmospheric Administration
    National Weather Service
    1325 East West Highway
    Silver Spring, MD 20910
    Page Author: NWS Internet Services Team
Disclaimer
Information Quality
Credits
Glossary
Privacy Policy
Freedom of Information Act (FOIA)
About Us
Career Opportunities